Another Hard Day at the Office Weather Stats

 
 
 

High monthly outside Temperature, 17.1 , C
Low monthly outside Temperature, -2.4 , C
High yearly outside Temperature, 17.1 , C
Low yearly outside Temperature, -2.4 , C

Low monthly barometer, 991.5 , mb
High monthly barometer, 1041.1 , mb
Low yearly barometer, 975.0 , mb
High yearly barometer 1041.1 , mb

High wind speed, 32.0 , mph
Time of High wind speed, 5:54 , mph
High monthly wind speed, 45.0 , mph
High yearly wind speed, 55.0 , mph

 

 




3125
                    Temp     Hi    Low   Out    Dew  Wind  Wind   Wind    Hi    Hi   Wind   Heat    THW                Rain    Heat    Cool    In     In    In     In     In   In Air  Wind  Wind    ISS   Arc.
  Date    Time     Out   Temp   Temp   Hum    Pt. Speed   Dir    Run Speed   Dir  Chill  Index  Index   Bar    Rain  Rate    D-D     D-D    Temp   Hum    Dew   Heat    EMC Density  Samp   Tx   Recept  Int.
---------------------------------------------------------------------------------------------------------------------------------------------------------------------------------------------------------------
27/02/15   0:05    3.2    3.2    3.2    80    0.0   4.0   WNW   0.33   8.0   WNW    1.5    3.0    1.3  1016.6  0.00   0.0   0.053   0.000   20.7    40    6.6   19.3   7.76 1.1942    115    1    100.0    5 
27/02/15   0:10    3.1    3.2    3.1    81    0.1   3.0   WNW   0.25   5.0     W    1.9    2.9    1.8  1016.7  0.00   0.0   0.053   0.000   20.7    40    6.6   19.3   7.77 1.1945    117    1    100.0    5 
27/02/15   0:15    2.9    3.1    2.9    81    0.0   3.0   WNW   0.25   4.0   WNW    1.8    2.8    1.7  1016.7  0.00   0.0   0.053   0.000   20.7    40    6.6   19.3   7.77 1.1945    117    1    100.0    5 
27/02/15   0:20    2.9    2.9    2.8    81   -0.1   3.0   WNW   0.25   5.0   WNW    1.8    2.7    1.6  1016.7  0.00   0.0   0.054   0.000   20.7    40    6.6   19.3   7.77 1.1945    117    1    100.0    5 
27/02/15   0:25    2.8    2.8    2.8    81   -0.2   3.0   WNW   0.25   7.0     W    1.7    2.6    1.5  1016.7  0.00   0.0   0.054   0.000   20.6    40    6.5   19.3   7.77 1.1948    117    1    100.0    5 
27/02/15   0:30    2.7    2.8    2.7    82   -0.1   3.0   WNW   0.25   5.0   WNW    1.5    2.5    1.3  1016.8  0.00   0.0   0.054   0.000   20.6    40    6.5   19.2   7.77 1.1952    117    1    100.0    5 
27/02/15   0:35    2.6    2.7    2.6    82   -0.2   2.0   WNW   0.17   4.0   WNW    2.2    2.4    2.1  1016.8  0.00   0.0   0.055   0.000   20.6    40    6.5   19.2   7.77 1.1952    117    1    100.0    5 
27/02/15   0:40    2.4    2.6    2.4    82   -0.3   2.0   WNW   0.17   3.0   WNW    2.1    2.3    1.9  1016.9  0.00   0.0   0.055   0.000   20.5    40    6.4   19.2   7.77 1.1955    117    1    100.0    5 
27/02/15   0:45    2.3    2.4    2.3    82   -0.4   3.0   WNW   0.25   5.0    NW    1.2    2.2    1.0  1016.9  0.00   0.0   0.056   0.000   20.5    40    6.4   19.2   7.77 1.1956    117    1    100.0    5 
27/02/15   0:50    2.3    2.3    2.3    83   -0.3   3.0    NW   0.25   6.0    NW    1.1    2.2    1.0  1016.9  0.00   0.0   0.056   0.000   20.4    40    6.4   19.1   7.77 1.1958    117    1    100.0    5 
27/02/15   0:55    2.2    2.3    2.2    83   -0.4   3.0    NW   0.25   5.0    NW    1.0    2.1    0.9  1016.9  0.00   0.0   0.056   0.000   20.4    40    6.4   19.1   7.77 1.1958    114    1    100.0    5 
27/02/15   1:00    2.2    2.2    2.2    84   -0.3   4.0    NW   0.33   7.0   WNW    0.3    2.1    0.2  1016.9  0.00   0.0   0.056   0.000   20.4    40    6.3   19.1   7.78 1.1961    117    1    100.0    5 
27/02/15   1:05    2.1    2.2    2.1    84   -0.3   4.0    NW   0.33   7.0    NW    0.3    2.0    0.2  1016.9  0.00   0.0   0.056   0.000   20.3    40    6.3   19.0   7.78 1.1964    117    1    100.0    5 
27/02/15   1:10    2.1    2.1    2.1    84   -0.3   5.0    NW   0.42   8.0    NW   -0.3    2.0   -0.4  1017.0  0.00   0.0   0.056   0.000   20.3    40    6.3   19.0   7.78 1.1965    116    1    100.0    5 
27/02/15   1:15    2.2    2.2    2.1    84   -0.3   5.0    NW   0.42   9.0    NW   -0.2    2.1   -0.3  1017.0  0.00   0.0   0.056   0.000   20.3    40    6.2   18.9   7.78 1.1967    115    1    100.0    5 
27/02/15   1:20    2.2    2.2    2.2    84   -0.3   4.0    NW   0.33   9.0   WNW    0.3    2.1    0.2  1016.9  0.00   0.0   0.056   0.000   20.2    40    6.2   18.9   7.78 1.1969    116    1    100.0    5 
27/02/15   1:25    2.2    2.2    2.2    84   -0.2   4.0    NW   0.33   7.0    NW    0.4    2.1    0.3  1016.9  0.00   0.0   0.056   0.000   20.2    40    6.2   18.9   7.78 1.1969    116    1    100.0    5 
27/02/15   1:30    2.2    2.2    2.2    84   -0.2   5.0    NW   0.42   8.0    NW   -0.1    2.1   -0.2  1017.0  0.00   0.0   0.056   0.000   20.2    40    6.1   18.8   7.78 1.1973    116    1    100.0    5 
27/02/15   1:35    2.2    2.2    2.2    84   -0.2   6.0    NW   0.50   9.0    NW   -0.6    2.1   -0.7  1017.0  0.00   0.0   0.056   0.000   20.2    40    6.1   18.8   7.78 1.1973    116    1    100.0    5 
27/02/15   1:40    2.2    2.2    2.2    84   -0.2   5.0    NW   0.42  10.0    NW   -0.1    2.1   -0.2  1017.1  0.00   0.0   0.056   0.000   20.1    40    6.1   18.8   7.79 1.1976    118    1    100.0    5 
27/02/15   1:45    2.3    2.3    2.2    84   -0.1   5.0   WNW   0.42   8.0   WNW   -0.1    2.2   -0.2  1017.0  0.00   0.0   0.056   0.000   20.1    40    6.0   18.7   7.79 1.1978    117    1    100.0    5 
27/02/15   1:50    2.3    2.3    2.3    84   -0.1   5.0   WNW   0.42   7.0     W   -0.1    2.2   -0.2  1017.1  0.00   0.0   0.056   0.000   20.1    40    6.0   18.7   7.79 1.1979    116    1    100.0    5 
27/02/15   1:55    2.2    2.3    2.2    84   -0.2   5.0   WNW   0.42   9.0   WNW   -0.1    2.1   -0.2  1017.2  0.00   0.0   0.056   0.000   20.0    40    6.0   18.7   7.79 1.1983    115    1    100.0    5 
27/02/15   2:00    2.2    2.2    2.2    84   -0.3   6.0   WNW   0.50  10.0   WNW   -0.6    2.1   -0.7  1017.2  0.00   0.0   0.056   0.000   20.0    40    6.0   18.7   7.79 1.1984    116    1    100.0    5 
27/02/15   2:05    2.2    2.2    2.2    84   -0.2   6.0   WNW   0.50  10.0    NW   -0.6    2.1   -0.7  1017.3  0.00   0.0   0.056   0.000   19.9    40    5.9   18.6   7.79 1.1988    116    1    100.0    5 
27/02/15   2:10    2.2    2.2    2.2    84   -0.3   5.0   WNW   0.42   9.0   WNW   -0.2    2.1   -0.3  1017.4  0.00   0.0   0.056   0.000   19.9    40    5.9   18.6   7.79 1.1988    116    1    100.0    5 
27/02/15   2:15    2.2    2.2    2.2    84   -0.3   5.0    NW   0.42  13.0    NW   -0.2    2.1   -0.3  1017.4  0.00   0.0   0.056   0.000   19.9    40    5.9   18.6   7.79 1.1991    117    1    100.0    5 
27/02/15   2:20    2.2    2.2    2.2    84   -0.3   5.0    NW   0.42   9.0    NW   -0.2    2.1   -0.3  1017.5  0.00   0.0   0.056   0.000   19.8    40    5.8   18.5   7.80 1.1995    117    1    100.0    5 
27/02/15   2:25    2.2    2.2    2.1    84   -0.3   5.0    NW   0.42   8.0    NW   -0.2    2.1   -0.3  1017.5  0.00   0.0   0.056   0.000   19.8    40    5.8   18.5   7.80 1.1995    116    1    100.0    5 
27/02/15   2:30    2.2    2.2    2.2    85   -0.1   5.0    NW   0.42  10.0    NW   -0.2    2.1   -0.3  1017.6  0.00   0.0   0.056   0.000   19.8    40    5.8   18.4   7.80 1.1998    116    1    100.0    5 
27/02/15   2:35    2.2    2.2    2.2    85   -0.1   4.0    NW   0.33   7.0    NW    0.3    2.1    0.2  1017.6  0.00   0.0   0.056   0.000   19.7    40    5.7   18.4   7.80 1.2001    117    1    100.0    5 
27/02/15   2:40    2.2    2.2    2.2    84   -0.2   6.0    NW   0.50   9.0    NW   -0.6    2.1   -0.7  1017.7  0.00   0.0   0.056   0.000   19.7    40    5.7   18.4   7.80 1.2002    116    1    100.0    5 
27/02/15   2:45    2.2    2.2    2.2    84   -0.3   5.0   NNW   0.42   8.0   NNW   -0.2    2.1   -0.3  1017.8  0.00   0.0   0.056   0.000   19.7    40    5.7   18.4   7.80 1.2003    117    1    100.0    5 
27/02/15   2:50    2.2    2.2    2.2    84   -0.3   6.0    NW   0.50   9.0    NW   -0.6    2.1   -0.7  1017.9  0.00   0.0   0.056   0.000   19.7    40    5.7   18.3   7.80 1.2007    116    1    100.0    5 
27/02/15   2:55    2.2    2.2    2.2    85   -0.1   6.0    NW   0.50  10.0    NW   -0.6    2.1   -0.7  1017.9  0.00   0.0   0.056   0.000   19.7    40    5.7   18.3   7.80 1.2007    117    1    100.0    5 
27/02/15   3:00    2.2    2.2    2.2    84   -0.3   5.0    NW   0.42   9.0    NW   -0.2    2.1   -0.3  1017.9  0.00   0.0   0.056   0.000   19.6    40    5.6   18.2   7.80 1.2010    117    1    100.0    5 
27/02/15   3:05    2.2    2.2    2.2    84   -0.3   6.0    NW   0.50  11.0   WNW   -0.6    2.1   -0.7  1018.0  0.00   0.0   0.056   0.000   19.6    40    5.6   18.2   7.80 1.2011    116    1    100.0    5 
27/02/15   3:10    2.2    2.2    2.2    84   -0.3   5.0    NW   0.42   8.0    NW   -0.2    2.1   -0.3  1018.0  0.00   0.0   0.056   0.000   19.6    40    5.6   18.2   7.81 1.2014    117    1    100.0    5 
27/02/15   3:15    2.2    2.2    2.2    84   -0.3   5.0    NW   0.42  10.0    NW   -0.2    2.1   -0.3  1018.0  0.00   0.0   0.056   0.000   19.5    40    5.5   18.1   7.81 1.2016    115    1    100.0    5 
27/02/15   3:20    2.2    2.2    2.2    84   -0.3   6.0    NW   0.50   9.0   NNW   -0.6    2.1   -0.7  1017.9  0.00   0.0   0.056   0.000   19.5    40    5.5   18.1   7.81 1.2016    115    1    100.0    5 
27/02/15   3:25    2.2    2.2    2.2    84   -0.3   6.0    NW   0.50   9.0    NW   -0.6    2.1   -0.7  1018.1  0.00   0.0   0.056   0.000   19.4    40    5.5   18.1   7.81 1.2020    116    1    100.0    5 
27/02/15   3:30    2.2    2.2    2.2    84   -0.3   4.0    NW   0.33   8.0    NW    0.3    2.1    0.2  1018.2  0.00   0.0   0.056   0.000   19.4    40    5.5   18.1   7.81 1.2021    116    1    100.0    5 
27/02/15   3:35    2.2    2.2    2.2    84   -0.3   4.0    NW   0.33   8.0    NW    0.3    2.1    0.2  1018.2  0.00   0.0   0.056   0.000   19.4    40    5.4   18.0   7.81 1.2025    116    1    100.0    5 
27/02/15   3:40    2.2    2.2    2.2    84   -0.3   4.0   WNW   0.33   6.0    NW    0.3    2.1    0.2  1018.3  0.00   0.0   0.056   0.000   19.3    40    5.4   17.9   7.81 1.2028    117    1    100.0    5 
27/02/15   3:45    2.1    2.2    2.1    84   -0.3   3.0   WNW   0.25   6.0   WNW    0.9    2.0    0.8  1018.3  0.00   0.0   0.056   0.000   19.3    40    5.4   17.9   7.81 1.2028    116    1    100.0    5 
27/02/15   3:50    2.1    2.1    2.1    84   -0.4   3.0   WNW   0.25   6.0   WNW    0.8    1.9    0.7  1018.3  0.00   0.0   0.057   0.000   19.3    40    5.3   17.9   7.82 1.2030    116    1    100.0    5 
27/02/15   3:55    2.0    2.1    2.0    85   -0.3   2.0    NW   0.17   5.0    NW    1.6    1.9    1.5  1018.4  0.00   0.0   0.057   0.000   19.3    40    5.3   17.9   7.82 1.2032    116    1    100.0    5 
27/02/15   4:00    1.9    2.0    1.9    85   -0.3   2.0    NW   0.17   3.0    NW    1.6    1.8    1.4  1018.5  0.00   0.0   0.057   0.000   19.2    40    5.3   17.8   7.82 1.2035    116    1    100.0    5 
27/02/15   4:05    1.9    1.9    1.9    85   -0.4   1.0    NW   0.08   2.0    NW    1.9    1.8    1.8  1018.5  0.00   0.0   0.057   0.000   19.2    40    5.2   17.8   7.82 1.2039    114    1    100.0    5 
27/02/15   4:10    1.8    1.9    1.8    85   -0.4   1.0     W   0.08   3.0     W    1.8    1.7    1.7  1018.5  0.00   0.0   0.057   0.000   19.2    40    5.2   17.8   7.82 1.2038    114    1    100.0    5 
27/02/15   4:15    1.8    1.8    1.8    85   -0.5   2.0     W   0.17   4.0     W    1.4    1.7    1.3  1018.5  0.00   0.0   0.057   0.000   19.1    40    5.2   17.7   7.82 1.2041    116    1    100.0    5 
27/02/15   4:20    1.7    1.8    1.7    85   -0.5   1.0     W   0.08   4.0     W    1.7    1.6    1.6  1018.6  0.00   0.0   0.058   0.000   19.1    40    5.2   17.7   7.82 1.2043    116    1    100.0    5 
27/02/15   4:25    1.7    1.7    1.7    85   -0.6   2.0     W   0.17   8.0     W    1.3    1.6    1.2  1018.6  0.00   0.0   0.058   0.000   19.1    40    5.1   17.6   7.82 1.2045    116    1    100.0    5 
27/02/15   4:30    1.7    1.7    1.6    85   -0.6   3.0    NW   0.25   8.0    NW    0.4    1.6    0.3  1018.7  0.00   0.0   0.058   0.000   19.0    40    5.1   17.6   7.83 1.2048    116    1    100.0    5 
27/02/15   4:35    1.7    1.7    1.7    86   -0.4   5.0    NW   0.42  10.0   NNW   -0.7    1.6   -0.8  1018.6  0.00   0.0   0.058   0.000   19.0    40    5.1   17.6   7.83 1.2048    116    1    100.0    5 
27/02/15   4:40    1.8    1.8    1.7    86   -0.3   3.0    NW   0.25   8.0    NW    0.5    1.7    0.4  1018.7  0.00   0.0   0.057   0.000   18.9    40    5.0   17.5   7.83 1.2052    117    1    100.0    5 
27/02/15   4:45    1.8    1.8    1.8    86   -0.3   3.0    NW   0.25   7.0   WNW    0.6    1.7    0.4  1018.8  0.00   0.0   0.057   0.000   18.9    40    5.0   17.4   7.83 1.2055    117    1    100.0    5 
27/02/15   4:50    1.9    1.9    1.8    86   -0.2   4.0    NW   0.33   9.0    NW    0.0    1.8   -0.1  1018.8  0.00   0.0   0.057   0.000   18.9    40    5.0   17.4   7.83 1.2055    115    1    100.0    5 
27/02/15   4:55    2.0    2.0    1.9    86   -0.1   5.0    NW   0.42   8.0    NW   -0.4    1.9   -0.5  1018.9  0.00   0.0   0.057   0.000   18.9    40    5.0   17.4   7.83 1.2056    117    1    100.0    5 
27/02/15   5:00    2.1    2.1    2.0    86   -0.0   6.0    NW   0.50  11.0    NW   -0.8    1.9   -0.9  1018.9  0.00   0.0   0.057   0.000   18.8    40    4.9   17.4   7.83 1.2059    116    1    100.0    5 
27/02/15   5:05    2.2    2.2    2.1    85   -0.1   5.0    NW   0.42  10.0   WNW   -0.2    2.1   -0.3  1018.9  0.00   0.0   0.056   0.000   18.8    40    4.9   17.3   7.83 1.2062    116    1    100.0    5 
27/02/15   5:10    2.2    2.2    2.2    85   -0.1   4.0    NW   0.33   8.0    NW    0.3    2.1    0.2  1018.9  0.00   0.0   0.056   0.000   18.8    40    4.9   17.3   7.83 1.2062    116    1    100.0    5 
27/02/15   5:15    2.2    2.2    2.2    85   -0.1   3.0    NW   0.25   7.0    NW    0.9    2.1    0.8  1019.0  0.00   0.0   0.056   0.000   18.7    40    4.8   17.3   7.84 1.2066    117    1    100.0    5 
27/02/15   5:20    2.2    2.2    2.2    85   -0.1   4.0    NW   0.33   9.0    NW    0.3    2.1    0.2  1019.1  0.00   0.0   0.056   0.000   18.7    40    4.8   17.2   7.84 1.2070    117    1    100.0    5 
27/02/15   5:25    2.2    2.2    2.2    85   -0.1   3.0    NW   0.25   6.0    NW    0.9    2.1    0.8  1019.2  0.00   0.0   0.056   0.000   18.7    40    4.8   17.2   7.84 1.2070    116    1    100.0    5 
27/02/15   5:30    2.2    2.2    2.2    85   -0.0   3.0    NW   0.25   5.0    NW    1.0    2.1    0.9  1019.2  0.00   0.0   0.056   0.000   18.7    40    4.8   17.2   7.84 1.2071    116    1    100.0    5 
27/02/15   5:35    2.3    2.3    2.2    85    0.0   3.0    NW   0.25   7.0   WNW    1.1    2.2    1.0  1019.3  0.00   0.0   0.056   0.000   18.6    40    4.7   17.2   7.84 1.2075    115    1    100.0    5 
27/02/15   5:40    2.3    2.3    2.3    86    0.2   3.0    NW   0.25   7.0   WNW    1.2    2.2    1.1  1019.4  0.00   0.0   0.056   0.000   18.6    40    4.7   17.2   7.84 1.2076    115    1    100.0    5 
27/02/15   5:45    2.4    2.4    2.3    86    0.3   3.0   WNW   0.25   7.0   WNW    1.3    2.3    1.2  1019.4  0.00   0.0   0.055   0.000   18.6    40    4.7   17.1   7.84 1.2079    117    1    100.0    5 
27/02/15   5:50    2.6    2.6    2.4    85    0.3   1.0   WNW   0.08   4.0     W    2.6    2.4    2.4  1019.6  0.00   0.0   0.055   0.000   18.6    40    4.7   17.1   7.84 1.2081    115    1    100.0    5 
27/02/15   5:55    2.7    2.7    2.6    86    0.6   2.0     W   0.17   4.0     W    2.3    2.6    2.2  1019.6  0.00   0.0   0.054   0.000   18.6    40    4.7   17.1   7.84 1.2081    117    1    100.0    5 
27/02/15   6:00    2.7    2.7    2.7    86    0.6   2.0     W   0.17   4.0     W    2.4    2.6    2.3  1019.6  0.00   0.0   0.054   0.000   18.5    40    4.6   17.1   7.84 1.2084    117    1    100.0    5 
27/02/15   6:05    2.7    2.8    2.7    86    0.6   2.0     W   0.17   5.0     W    2.4    2.6    2.3  1019.8  0.00   0.0   0.054   0.000   18.5    40    4.6   17.1   7.84 1.2086    117    1    100.0    5 
27/02/15   6:10    2.8    2.8    2.8    85    0.6   5.0   WSW   0.42   6.0   WSW    0.6    2.7    0.5  1019.8  0.00   0.0   0.054   0.000   18.5    40    4.6   17.1   7.84 1.2086    116    1    100.0    5 
27/02/15   6:15    2.9    2.9    2.8    85    0.6   5.0   WSW   0.42   7.0   WSW    0.7    2.8    0.6  1019.9  0.00   0.0   0.054   0.000   18.5    40    4.6   17.1   7.84 1.2087    116    1    100.0    5 
27/02/15   6:20    3.0    3.0    2.9    86    0.9   4.0   WSW   0.33   6.0   WSW    1.3    2.9    1.2  1019.9  0.00   0.0   0.053   0.000   18.4    40    4.6   17.0   7.85 1.2090    116    1    100.0    5 
27/02/15   6:25    3.2    3.2    3.0    86    1.0   4.0     W   0.33   6.0     W    1.5    3.1    1.4  1019.9  0.00   0.0   0.053   0.000   18.4    40    4.6   17.0   7.85 1.2090    116    1    100.0    5 
27/02/15   6:30    3.3    3.3    3.2    85    1.1   2.0     W   0.17   5.0     W    3.1    3.2    3.0  1020.0  0.00   0.0   0.052   0.000   18.4    40    4.6   17.0   7.85 1.2091    116    1    100.0    5 
27/02/15   6:35    3.6    3.6    3.4    85    1.3   2.0     W   0.17   5.0     W    3.3    3.4    3.2  1020.1  0.00   0.0   0.051   0.000   18.4    40    4.6   17.0   7.85 1.2092    116    1    100.0    5 
27/02/15   6:40    3.7    3.7    3.6    84    1.3   3.0     W   0.25   5.0     W    2.7    3.6    2.6  1020.1  0.00   0.0   0.051   0.000   18.4    40    4.6   17.0   7.85 1.2092    117    1    100.0    5 
27/02/15   6:45    3.9    3.9    3.7    84    1.4   3.0     W   0.25   5.0   WNW    2.9    3.8    2.8  1020.2  0.00   0.0   0.050   0.000   18.4    40    4.6   17.0   7.85 1.2093    117    1    100.0    5 
27/02/15   6:50    4.1    4.1    3.9    83    1.5   3.0   WNW   0.25   5.0   WNW    3.2    4.0    3.1  1020.1  0.00   0.0   0.049   0.000   18.4    40    4.6   17.0   7.85 1.2092    117    1    100.0    5 
27/02/15   6:55    4.3    4.3    4.1    83    1.7   4.0   WNW   0.33   8.0   WNW    2.8    4.2    2.7  1020.1  0.00   0.0   0.049   0.000   18.5    40    4.6   17.1   7.84 1.2089    117    1    100.0    5 
27/02/15   7:00    4.6    4.6    4.3    83    1.9   5.0    NW   0.42   9.0    NW    2.6    4.4    2.5  1020.1  0.00   0.0   0.048   0.000   18.5    40    4.6   17.1   7.84 1.2090    117    1    100.0    5 
27/02/15   7:05    4.9    4.9    4.6    82    2.1   3.0   WNW   0.25   8.0    NW    4.1    4.8    3.9  1020.3  0.00   0.0   0.046   0.000   18.5    40    4.6   17.1   7.84 1.2092    118    1    100.0    5 
27/02/15   7:10    5.2    5.2    4.9    81    2.2   4.0    NW   0.33   6.0    NW    3.8    5.1    3.7  1020.2  0.00   0.0   0.046   0.000   18.6    40    4.7   17.1   7.84 1.2088    117    1    100.0    5 
27/02/15   7:15    5.5    5.5    5.2    80    2.3   4.0   WNW   0.33   6.0     W    4.2    5.3    4.0  1020.3  0.00   0.0   0.045   0.000   18.5    40    4.6   17.1   7.84 1.2092    117    1    100.0    5 
27/02/15   7:20    5.7    5.7    5.6    78    2.1   6.0   WNW   0.50  10.0   WNW    3.5    5.5    3.3  1020.4  0.00   0.0   0.044   0.000   18.6    40    4.7   17.1   7.84 1.2090    117    1    100.0    5 
27/02/15   7:25    5.8    5.8    5.7    77    2.1   6.0    NW   0.50  14.0    NW    3.7    5.6    3.5  1020.4  0.00   0.0   0.043   0.000   18.6    41    5.0   17.2   7.95 1.2088    116    1    100.0    5 
27/02/15   7:30    5.9    5.9    5.9    76    2.0   5.0    NW   0.42  10.0    NW    4.2    5.7    4.0  1020.4  0.00   0.0   0.043   0.000   18.6    40    4.7   17.1   7.84 1.2091    117    1    100.0    5 
27/02/15   7:35    6.3    6.3    6.0    77    2.5   5.0    NW   0.42  10.0   WNW    4.7    6.1    4.5  1020.4  0.00   0.0   0.042   0.000   18.6    41    5.1   17.2   7.95 1.2085    117    1    100.0    5 
27/02/15   7:40    6.4    6.4    6.2    76    2.5   5.0   NNW   0.42   8.0   NNW    4.8    6.2    4.6  1020.5  0.00   0.0   0.041   0.000   18.6    41    5.1   17.2   7.95 1.2086    116    1    100.0    5 
27/02/15   7:45    6.7    6.7    6.4    76    2.8   5.0   NNW   0.42   9.0    NW    5.2    6.5    4.9  1020.5  0.00   0.0   0.040   0.000   18.7    41    5.1   17.3   7.95 1.2084    116    1    100.0    5 
27/02/15   7:50    6.8    6.8    6.7    75    2.7   5.0    NW   0.42   9.0    NW    5.2    6.6    5.0  1020.5  0.00   0.0   0.040   0.000   18.7    41    5.1   17.3   7.95 1.2084    117    1    100.0    5 
27/02/15   7:55    6.9    6.9    6.8    76    2.9   5.0   NNW   0.42   9.0    NW    5.3    6.7    5.1  1020.5  0.00   0.0   0.040   0.000   18.7    41    5.2   17.3   7.95 1.2081    116    1    100.0    5 
27/02/15   8:00    7.1    7.1    6.9    75    2.9   4.0    NW   0.33   9.0   WNW    5.9    6.8    5.7  1020.5  0.00   0.0   0.039   0.000   18.8    41    5.2   17.4   7.95 1.2079    117    1    100.0    5 
27/02/15   8:05    7.1    7.1    7.1    75    2.9   7.0    NW   0.58  12.0   NNW    4.9    6.8    4.7  1020.6  0.00   0.0   0.039   0.000   18.8    41    5.2   17.4   7.95 1.2079    117    1    100.0    5 
27/02/15   8:10    7.0    7.1    7.0    74    2.7   6.0   WNW   0.50  10.0    NW    5.1    6.8    4.9  1020.6  0.00   0.0   0.039   0.000   18.8    41    5.2   17.4   7.95 1.2079    118    1    100.0    5 
27/02/15   8:15    6.9    7.0    6.9    73    2.4   7.0   WNW   0.58  12.0    NW    4.7    6.7    4.5  1020.5  0.00   0.0   0.040   0.000   18.8    41    5.3   17.4   7.95 1.2076    117    1    100.0    5 
27/02/15   8:20    7.0    7.0    6.9    73    2.5   5.0   WNW   0.42   9.0   WNW    5.5    6.8    5.3  1020.5  0.00   0.0   0.039   0.000   18.9    41    5.3   17.5   7.95 1.2073    116    1    100.0    5 
27/02/15   8:25    7.1    7.1    7.0    72    2.4   6.0   WNW   0.50  10.0   WNW    5.3    6.8    5.0  1020.5  0.00   0.0   0.039   0.000   18.9    41    5.3   17.5   7.95 1.2073    117    1    100.0    5 
27/02/15   8:30    7.3    7.3    7.1    71    2.4   6.0   WNW   0.50  10.0   WNW    5.4    7.0    5.2  1020.5  0.00   0.0   0.038   0.000   18.9    41    5.3   17.5   7.95 1.2073    116    1    100.0    5 
27/02/15   8:35    7.4    7.4    7.3    71    2.5   4.0     W   0.33   7.0   WNW    6.4    7.2    6.1  1020.4  0.00   0.0   0.038   0.000   18.9    41    5.4   17.6   7.95 1.2069    117    1    100.0    5 
27/02/15   8:40    7.7    7.7    7.4    69    2.4   7.0    NW   0.58  14.0    NW    5.7    7.4    5.4  1020.5  0.00   0.0   0.037   0.000   19.0    41    5.4   17.6   7.95 1.2067    117    1    100.0    5 
27/02/15   8:45    8.0    8.0    7.7    67    2.2   6.0   NNW   0.50  11.0    NW    6.3    7.7    6.0  1020.5  0.00   0.0   0.036   0.000   19.0    41    5.4   17.6   7.95 1.2068    117    1    100.0    5 
27/02/15   8:50    8.4    8.4    8.0    68    2.8   4.0   NNW   0.33  11.0   NNW    7.5    8.1    7.2  1020.5  0.00   0.0   0.035   0.000   19.1    41    5.5   17.7   7.95 1.2065    117    1    100.0    5 
27/02/15   8:55    8.6    8.6    8.4    65    2.3   7.0    NW   0.58  11.0     N    6.7    8.2    6.3  1020.4  0.00   0.0   0.034   0.000   19.1    41    5.5   17.7   7.95 1.2064    116    1    100.0    5 
27/02/15   9:00    8.7    8.7    8.5    65    2.4   4.0    NW   0.33   7.0   NNW    7.8    8.3    7.4  1020.5  0.00   0.0   0.034   0.000   19.1    41    5.5   17.7   7.95 1.2062    117    1    100.0    5 
27/02/15   9:05    9.0    9.0    8.7    65    2.8   5.0    NW   0.42   9.0    NW    7.8    8.6    7.4  1020.6  0.00   0.0   0.032   0.000   19.1    41    5.5   17.7   7.95 1.2064    116    1    100.0    5 
27/02/15   9:10    9.2    9.2    9.0    62    2.3   4.0   WNW   0.33   8.0   WNW    8.4    8.8    8.1  1020.5  0.00   0.0   0.032   0.000   19.2    41    5.6   17.8   7.95 1.2060    118    1    100.0    5 
27/02/15   9:15    8.9    9.2    8.9    62    2.0   5.0     W   0.42   8.0   WNW    7.8    8.5    7.3  1020.6  0.00   0.0   0.033   0.000   19.2    41    5.6   17.8   7.95 1.2060    117    1    100.0    5 
27/02/15   9:20    9.1    9.1    8.9    61    2.0   4.0    NW   0.33   8.0    NW    8.3    8.7    7.9  1020.6  0.00   0.0   0.032   0.000   19.2    41    5.6   17.9   7.95 1.2058    117    1    100.0    5 
27/02/15   9:25    8.4    9.2    8.4    67    2.7   4.0   WSW   0.33   6.0     W    7.6    8.1    7.2  1020.7  0.00   0.0   0.034   0.000   19.3    41    5.7   17.9   7.95 1.2056    117    1    100.0    5 
27/02/15   9:30    7.8    8.4    7.8    70    2.7   5.0    SW   0.42   7.0    SW    6.4    7.6    6.2  1020.7  0.00   0.0   0.036   0.000   19.3    41    5.7   17.9   7.95 1.2056    117    1    100.0    5 
27/02/15   9:35    7.4    7.8    7.4    72    2.7   6.0    SW   0.50   8.0    SW    5.7    7.2    5.4  1020.7  0.00   0.0   0.038   0.000   19.3    41    5.7   18.0   7.95 1.2054    116    1    100.0    5 
27/02/15   9:40    7.3    7.4    7.3    72    2.6   7.0    SW   0.58  10.0   WSW    5.2    7.0    4.9  1020.6  0.00   0.0   0.038   0.000   19.3    41    5.7   18.0   7.95 1.2053    117    1    100.0    5 
27/02/15   9:45    7.4    7.4    7.3    74    3.1   7.0   SSW   0.58   9.0    SW    5.4    7.2    5.2  1020.7  0.00   0.0   0.038   0.000   19.4    41    5.8   18.1   7.95 1.2051    117    1    100.0    5 
27/02/15   9:50    7.4    7.5    7.4    75    3.3   7.0   SSW   0.58   9.0    SW    5.4    7.2    5.2  1020.7  0.00   0.0   0.038   0.000   19.4    41    5.8   18.1   7.95 1.2048    117    1    100.0    5 
27/02/15   9:55    7.4    7.4    7.3    76    3.5   6.0   SSW   0.50   8.0   SSW    5.7    7.2    5.4  1020.6  0.00   0.0   0.038   0.000   19.4    41    5.8   18.1   7.95 1.2047    117    1    100.0    5 
27/02/15  10:00    7.4    7.4    7.4    72    2.7   6.0    SW   0.50   9.0    SW    5.6    7.1    5.3  1020.5  0.00   0.0   0.038   0.000   19.4    41    5.8   18.1   7.95 1.2046    116    1    100.0    5 
27/02/15  10:05    7.5    7.6    7.4    74    3.2   8.0    SW   0.67  11.0    SW    5.1    7.3    4.9  1020.4  0.00   0.0   0.038   0.000   19.5    41    5.9   18.2   7.95 1.2042    116    1    100.0    5 
27/02/15  10:10    7.5    7.5    7.4    75    3.4   9.0    SW   0.75  13.0    SW    4.8    7.3    4.6  1020.4  0.00   0.0   0.038   0.000   19.6    41    5.9   18.2   7.95 1.2040    116    1    100.0    5 
27/02/15  10:15    7.3    7.5    7.3    75    3.2  11.0    SW   0.92  14.0    SW    4.0    7.1    3.8  1020.4  0.00   0.0   0.038   0.000   19.6    41    5.9   18.2   7.95 1.2040    116    1    100.0    5 
27/02/15  10:20    7.3    7.4    7.3    73    2.8  10.0    SW   0.83  16.0   WSW    4.2    7.1    4.0  1020.4  0.00   0.0   0.038   0.000   19.6    42    6.3   18.4   8.10 1.2034    116    1    100.0    5 
27/02/15  10:25    7.3    7.3    7.3    75    3.1  10.0   WSW   0.83  14.0    SW    4.2    7.1    4.0  1020.5  0.00   0.0   0.038   0.000   19.6    42    6.3   18.4   8.10 1.2035    116    1    100.0    5 
27/02/15  10:30    7.4    7.4    7.2    75    3.2  11.0   WSW   0.92  14.0   WSW    4.1    7.2    3.9  1020.5  0.00   0.0   0.038   0.000   19.7    42    6.4   18.4   8.10 1.2032    117    1    100.0    5 
27/02/15  10:35    7.4    7.5    7.4    78    3.9  12.0    SW   1.00  16.0    SW    3.9    7.3    3.7  1020.4  0.00   0.0   0.038   0.000   19.7    42    6.4   18.4   8.10 1.2031    117    1    100.0    5 
27/02/15  10:40    7.2    7.4    7.2    79    3.8  15.0    SW   1.25  17.0    SW    3.1    7.1    2.9  1020.3  0.00   0.0   0.039   0.000   19.7    42    6.4   18.5   8.10 1.2028    117    1    100.0    5 
27/02/15  10:45    7.3    7.3    7.2    79    3.9  14.0   WSW   1.17  18.0   WSW    3.3    7.2    3.2  1020.4  0.00   0.0   0.038   0.000   19.8    42    6.5   18.6   8.10 1.2026    117    1    100.0    5 
27/02/15  10:50    7.2    7.3    7.2    79    3.8  15.0   WSW   1.25  18.0   WSW    3.1    7.1    2.9  1020.4  0.00   0.0   0.039   0.000   19.8    42    6.5   18.6   8.10 1.2026    116    1    100.0    5 
27/02/15  10:55    7.2    7.3    7.2    78    3.6  15.0   WSW   1.25  18.0   WSW    3.1    7.1    2.9  1020.4  0.00   0.0   0.039   0.000   19.8    42    6.5   18.6   8.10 1.2026    117    1    100.0    5 
27/02/15  11:00    7.2    7.3    7.2    78    3.6  15.0   WSW   1.25  19.0     W    3.0    7.0    2.8  1020.4  0.00   0.0   0.039   0.000   19.8    42    6.5   18.6   8.10 1.2023    117    1    100.0    5 
27/02/15  11:05    7.3    7.3    7.2    80    4.1  15.0   WSW   1.25  18.0    SW    3.1    7.2    3.0  1020.3  0.00   0.0   0.038   0.000   19.8    42    6.5   18.6   8.10 1.2022    117    1    100.0    5 
27/02/15  11:10    7.2    7.3    7.2    78    3.6  14.0   WSW   1.17  17.0   WSW    3.2    7.1    3.1  1020.3  0.00   0.0   0.039   0.000   19.9    42    6.6   18.7   8.09 1.2020    117    1    100.0    5 
27/02/15  11:15    7.2    7.3    7.2    79    3.8  14.0   WSW   1.17  18.0   WSW    3.2    7.1    3.1  1020.3  0.00   0.0   0.039   0.000   19.9    42    6.6   18.7   8.09 1.2019    117    1    100.0    5 
27/02/15  11:20    7.2    7.2    7.2    77    3.5  14.0   WSW   1.17  17.0   WSW    3.2    7.1    3.1  1020.3  0.00   0.0   0.039   0.000   19.9    42    6.6   18.7   8.09 1.2017    117    1    100.0    5 
27/02/15  11:25    7.4    7.4    7.2    77    3.6  12.0    SW   1.00  15.0   WSW    3.8    7.2    3.7  1020.2  0.00   0.0   0.038   0.000   19.9    42    6.6   18.7   8.09 1.2016    117    1    100.0    5 
27/02/15  11:30    7.3    7.4    7.2    77    3.5  13.0   WSW   1.08  17.0    SW    3.5    7.1    3.3  1020.3  0.00   0.0   0.038   0.000   20.0    42    6.7   18.8   8.09 1.2014    117    1    100.0    5 
27/02/15  11:35    7.4    7.6    7.3    77    3.7  14.0    SW   1.17  17.0    SW    3.5    7.3    3.3  1020.2  0.00   0.0   0.038   0.000   20.0    42    6.7   18.8   8.09 1.2014    116    1    100.0    5 
27/02/15  11:40    7.4    7.4    7.4    77    3.7  13.0    SW   1.08  16.0    SW    3.7    7.3    3.5  1020.2  0.00   0.0   0.038   0.000   20.1    42    6.7   18.8   8.09 1.2011    117    1    100.0    5 
27/02/15  11:45    7.4    7.5    7.4    78    3.9  12.0    SW   1.00  16.0    SW    3.9    7.3    3.7  1020.3  0.00   0.0   0.038   0.000   20.1    42    6.8   18.9   8.09 1.2009    116    1    100.0    5 
27/02/15  11:50    7.6    7.6    7.4    79    4.1  12.0    SW   1.00  16.0    SW    4.1    7.4    3.9  1020.3  0.00   0.0   0.037   0.000   20.1    42    6.8   18.9   8.09 1.2009    117    1    100.0    5 
27/02/15  11:55    7.7    7.7    7.6    79    4.3  13.0    SW   1.08  17.0    SW    3.9    7.6    3.8  1020.3  0.00   0.0   0.037   0.000   20.2    42    6.8   18.9   8.08 1.2006    117    1    100.0    5 
27/02/15  12:00    7.3    7.6    7.3    80    4.1  15.0    SW   1.25  20.0    SW    3.2    7.2    3.1  1020.3  0.00   0.0   0.038   0.000   20.2    42    6.9   19.0   8.08 1.2004    117    1    100.0    5 
27/02/15  12:05    7.3    7.3    7.2    81    4.2  16.0    SW   1.33  20.0   WSW    2.9    7.2    2.8  1020.4  0.00   0.0   0.038   0.000   20.3    43    7.3   19.1   8.25 1.1999    117    1    100.0    5 
27/02/15  12:10    7.3    7.4    7.3    81    4.2  16.0    SW   1.33  19.0   WSW    2.9    7.2    2.8  1020.3  0.00   0.0   0.038   0.000   20.3    43    7.3   19.2   8.25 1.1996    117    1    100.0    5 
27/02/15  12:15    7.3    7.3    7.3    80    4.1  16.0    SW   1.33  19.0    SW    2.9    7.2    2.8  1020.3  0.00   0.0   0.038   0.000   20.4    43    7.4   19.2   8.25 1.1992    117    1    100.0    5 
27/02/15  12:20    7.3    7.3    7.2    82    4.4  14.0    SW   1.17  18.0    SW    3.3    7.2    3.2  1020.2  0.00   0.0   0.038   0.000   20.4    43    7.4   19.3   8.25 1.1989    117    1    100.0    5 
27/02/15  12:25    7.2    7.3    7.2    82    4.3  14.0    SW   1.17  18.0   WSW    3.2    7.1    3.1  1020.2  0.00   0.0   0.039   0.000   20.5    43    7.5   19.3   8.25 1.1986    117    1    100.0    5 
27/02/15  12:30    7.1    7.2    7.0    84    4.5  15.0    SW   1.25  18.0    SW    2.9    7.0    2.8  1020.2  0.00   0.0   0.039   0.000   20.6    43    7.5   19.4   8.25 1.1983    117    1    100.0    5 
27/02/15  12:35    7.1    7.1    6.9    83    4.4  16.0    SW   1.33  19.0   WSW    2.7    7.0    2.7  1020.1  0.00   0.0   0.039   0.000   20.6    44    7.9   19.5   8.35 1.1976    116    1    100.0    5 
27/02/15  12:40    6.8    7.1    6.8    84    4.3  16.0    SW   1.33  19.0    SW    2.4    6.8    2.4  1020.2  0.00   0.0   0.040   0.000   20.7    44    8.0   19.5   8.35 1.1976    115    1    100.0    5 
27/02/15  12:45    6.8    6.8    6.7    84    4.3  17.0    SW   1.42  20.0   WSW    2.2    6.7    2.2  1020.1  0.00   0.0   0.040   0.000   20.7    44    8.0   19.6   8.35 1.1971    117    1    100.0    5 
27/02/15  12:50    7.2    7.2    6.8    83    4.5  16.0    SW   1.33  19.0   WSW    2.9    7.2    2.8  1020.0  0.00   0.0   0.039   0.000   20.8    44    8.1   19.6   8.35 1.1967    117    1    100.0    5 
27/02/15  12:55    7.3    7.3    7.2    83    4.6  15.0    SW   1.25  19.0   WSW    3.2    7.3    3.1  1020.0  0.00   0.0   0.038   0.000   20.9    44    8.2   19.7   8.35 1.1962    115    1    100.0    5 
27/02/15  13:00    7.3    7.3    7.3    83    4.6  14.0   WSW   1.17  18.0    SW    3.3    7.3    3.3  1020.0  0.00   0.0   0.038   0.000   20.9    44    8.2   19.7   8.35 1.1960    116    1    100.0    5 
27/02/15  13:05    7.3    7.3    7.2    83    4.6  15.0   WSW   1.25  19.0   WSW    3.1    7.2    3.1  1019.9  0.00   0.0   0.038   0.000   21.0    44    8.3   19.8   8.35 1.1956    115    1    100.0    5 
27/02/15  13:10    7.2    7.3    7.2    83    4.5  17.0    SW   1.42  20.0    SW    2.7    7.2    2.7  1019.9  0.00   0.0   0.039   0.000   21.1    44    8.3   19.8   8.35 1.1953    116    1    100.0    5 
27/02/15  13:15    7.2    7.2    7.2    82    4.3  16.0    SW   1.33  19.0    SW    2.8    7.1    2.7  1019.8  0.00   0.0   0.039   0.000   21.1    44    8.4   19.8   8.35 1.1949    117    1    100.0    5 
27/02/15  13:20    7.2    7.2    7.2    82    4.3  16.0    SW   1.33  18.0   WSW    2.8    7.1    2.7  1019.8  0.00   0.0   0.039   0.000   21.2    44    8.5   20.0   8.35 1.1943    117    1    100.0    5 
27/02/15  13:25    7.1    7.2    7.1    83    4.4  15.0    SW   1.25  18.0    SW    2.9    7.1    2.9  1019.8  0.00   0.0   0.039   0.000   21.3    44    8.5   20.1   8.34 1.1941    118    1    100.0    5 
27/02/15  13:30    7.1    7.2    7.1    83    4.4  15.0    SW   1.25  20.0   WSW    2.9    7.1    2.9  1019.8  0.00   0.0   0.039   0.000   21.3    44    8.6   20.1   8.34 1.1939    116    1    100.0    5 
27/02/15  13:35    7.1    7.2    7.1    83    4.4  16.0    SW   1.33  19.0    SW    2.8    7.1    2.7  1019.9  0.00   0.0   0.039   0.000   21.4    44    8.7   20.3   8.34 1.1934    117    1    100.0    5 
27/02/15  13:40    7.1    7.2    7.1    82    4.2  15.0    SW   1.25  20.0    SW    2.9    7.0    2.8  1019.9  0.00   0.0   0.039   0.000   21.5    44    8.7   20.3   8.34 1.1932    117    1    100.0    5 
27/02/15  13:45    7.1    7.1    7.1    83    4.4  15.0    SW   1.25  18.0    SW    2.9    7.1    2.9  1020.0  0.00   0.0   0.039   0.000   21.6    44    8.8   20.4   8.33 1.1930    116    1    100.0    5 
27/02/15  13:50    7.2    7.2    7.1    82    4.3  14.0   WSW   1.17  17.0   WSW    3.2    7.1    3.1  1020.0  0.00   0.0   0.039   0.000   21.6    44    8.8   20.5   8.33 1.1927    114    1    100.0    5 
27/02/15  13:55    7.1    7.2    7.1    82    4.2  15.0   WSW   1.25  18.0    SW    2.9    6.9    2.8  1020.1  0.00   0.0   0.039   0.000   21.7    44    8.9   20.6   8.33 1.1925    117    1    100.0    5 
27/02/15  14:00    7.1    7.1    7.1    83    4.4  14.0   WSW   1.17  17.0    SW    3.1    7.1    3.1  1019.9  0.00   0.0   0.039   0.000   21.7    43    8.6   20.6   8.21 1.1924    117    1    100.0    5 
27/02/15  14:05    7.0    7.2    7.0    82    4.1  16.0    SW   1.33  20.0    SW    2.7    6.9    2.6  1019.8  0.00   0.0   0.039   0.000   21.8    43    8.6   20.7   8.20 1.1920    116    1    100.0    5 
27/02/15  14:10    6.9    7.0    6.9    83    4.2  15.0   WSW   1.25  18.0    SW    2.7    6.8    2.6  1019.7  0.00   0.0   0.040   0.000   21.8    43    8.7   20.8   8.20 1.1916    117    1    100.0    5 
27/02/15  14:15    6.8    6.9    6.8    84    4.3  14.0   WSW   1.17  18.0   WSW    2.7    6.7    2.7  1019.7  0.00   0.0   0.040   0.000   21.9    43    8.7   20.8   8.19 1.1914    117    1    100.0    5 
27/02/15  14:20    6.7    6.8    6.7    84    4.2  15.0    SW   1.25  19.0    SW    2.5    6.7    2.4  1019.7  0.00   0.0   0.040   0.000   21.9    43    8.8   20.9   8.19 1.1911    117    1    100.0    5 
27/02/15  14:25    6.7    6.8    6.7    83    4.0  15.0    SW   1.25  19.0    SW    2.4    6.6    2.4  1019.8  0.00   0.0   0.041   0.000   22.0    42    8.5   20.9   8.02 1.1912    116    1    100.0    5 
27/02/15  14:30    6.7    6.7    6.7    84    4.2  15.0   WSW   1.25  19.0   WSW    2.4    6.6    2.4  1019.7  0.00   0.0   0.041   0.000   22.0    42    8.5   20.9   8.02 1.1911    118    1    100.0    5 
27/02/15  14:35    6.6    6.7    6.6    83    3.9  14.0   WSW   1.17  18.0   WSW    2.6    6.6    2.5  1019.8  0.00   0.0   0.041   0.000   22.0    42    8.5   20.9   8.02 1.1913    117    1    100.0    5 
27/02/15  14:40    6.6    6.6    6.6    83    3.9  15.0   WSW   1.25  19.0   WSW    2.4    6.6    2.3  1019.8  0.00   0.0   0.041   0.000   22.1    42    8.5   21.0   8.02 1.1910    115    1    100.0    5 
27/02/15  14:45    6.7    6.7    6.6    83    4.0  14.0   WSW   1.17  17.0   WSW    2.6    6.6    2.6  1019.9  0.00   0.0   0.041   0.000   22.1    42    8.5   21.0   8.02 1.1910    117    1    100.0    5 
27/02/15  14:50    6.7    6.7    6.7    82    3.9  15.0   WSW   1.25  17.0   WSW    2.5    6.6    2.4  1019.9  0.00   0.0   0.040   0.000   22.1    41    8.2   21.1   7.88 1.1911    117    1    100.0    5 
27/02/15  14:55    6.7    6.7    6.7    82    3.9  15.0   WSW   1.25  18.0   WSW    2.5    6.6    2.4  1019.9  0.00   0.0   0.040   0.000   22.1    41    8.2   21.1   7.88 1.1911    117    1    100.0    5 
27/02/15  15:00    6.8    6.8    6.7    83    4.1  14.0   WSW   1.17  19.0   WSW    2.7    6.7    2.7  1020.0  0.00   0.0   0.040   0.000   22.1    41    8.2   21.1   7.88 1.1912    115    1    100.0    5 
27/02/15  15:05    6.8    6.8    6.8    84    4.3  13.0   WSW   1.08  16.0   WSW    2.9    6.7    2.8  1020.1  0.00   0.0   0.040   0.000   22.1    41    8.2   21.1   7.88 1.1913    116    1    100.0    5 
27/02/15  15:10    6.7    6.8    6.7    84    4.2  13.0   WSW   1.08  17.0   WSW    2.8    6.7    2.8  1020.0  0.00   0.0   0.040   0.000   22.1    41    8.2   21.1   7.88 1.1912    116    1    100.0    5 
27/02/15  15:15    6.7    6.7    6.7    84    4.2  13.0   WSW   1.08  16.0   WSW    2.8    6.6    2.7  1020.1  0.00   0.0   0.041   0.000   22.1    41    8.2   21.1   7.88 1.1914    117    1    100.0    5 
27/02/15  15:20    6.7    6.7    6.6    85    4.3  12.0   WSW   1.00  16.0   WSW    3.0    6.6    2.9  1020.3  0.00   0.0   0.041   0.000   22.1    40    7.9   21.0   7.71 1.1918    116    1    100.0    5 
27/02/15  15:25    6.6    6.7    6.6    84    4.1  11.0   WSW   0.92  14.0   WSW    3.2    6.6    3.1  1020.2  0.00   0.0   0.041   0.000   22.1    40    7.9   21.0   7.71 1.1918    116    1    100.0    5 
27/02/15  15:30    6.6    6.6    6.5    84    4.0  11.0   WSW   0.92  15.0   WSW    3.1    6.5    3.1  1020.2  0.00   0.0   0.041   0.000   22.1    40    7.9   21.0   7.71 1.1918    116    1    100.0    5 
27/02/15  15:35    6.6    6.6    6.5    84    4.0  13.0   WSW   1.08  16.0   WSW    2.7    6.5    2.6  1020.3  0.00   0.0   0.041   0.000   22.1    40    7.9   21.0   7.71 1.1918    118    1    100.0    5 
27/02/15  15:40    6.6    6.6    6.6    84    4.0  13.0   WSW   1.08  16.0   WSW    2.7    6.5    2.6  1020.3  0.00   0.0   0.041   0.000   22.1    40    7.9   21.0   7.71 1.1918    117    1    100.0    5 
27/02/15  15:45    6.6    6.6    6.6    84    4.0  13.0   WSW   1.08  16.0   WSW    2.7    6.5    2.6  1020.3  0.00   0.0   0.041   0.000   22.1    40    7.9   21.0   7.71 1.1919    115    1    100.0    5 
27/02/15  15:50    6.6    6.6    6.6    85    4.2  13.0   WSW   1.08  16.0   WSW    2.7    6.5    2.6  1020.5  0.00   0.0   0.041   0.000   22.1    40    7.9   21.0   7.71 1.1921    117    1    100.0    5 
27/02/15  15:55    6.6    6.6    6.6    85    4.2  11.0   WSW   0.92  15.0   WSW    3.1    6.5    3.1  1020.4  0.00   0.0   0.041   0.000   22.1    40    7.8   20.9   7.72 1.1923    116    1    100.0    5 
27/02/15  16:00    6.6    6.6    6.6    85    4.3  13.0   WSW   1.08  16.0   WSW    2.7    6.6    2.7  1020.3  0.00   0.0   0.041   0.000   22.1    40    7.8   20.9   7.72 1.1922    117    1    100.0    5 
27/02/15  16:05    6.6    6.6    6.6    85    4.2  12.0   WSW   1.00  16.0   WSW    2.9    6.5    2.8  1020.5  0.00   0.0   0.041   0.000   22.1    39    7.5   20.9   7.62 1.1927    116    1    100.0    5 
27/02/15  16:10    6.6    6.6    6.6    85    4.2  11.0   WSW   0.92  13.0   WSW    3.1    6.5    3.1  1020.4  0.00   0.0   0.041   0.000   22.0    39    7.4   20.8   7.62 1.1929    116    1    100.0    5 
27/02/15  16:15    6.6    6.6    6.6    85    4.2  11.0   WSW   0.92  14.0   WSW    3.1    6.5    3.1  1020.4  0.00   0.0   0.041   0.000   22.0    39    7.4   20.8   7.62 1.1929    117    1    100.0    5 
27/02/15  16:20    6.6    6.6    6.6    85    4.3  10.0   WSW   0.83  14.0   WSW    3.4    6.6    3.4  1020.5  0.00   0.0   0.041   0.000   22.0    39    7.4   20.8   7.62 1.1929    117    1    100.0    5 
27/02/15  16:25    6.6    6.6    6.6    85    4.3  10.0   WSW   0.83  13.0   WSW    3.4    6.6    3.4  1020.5  0.00   0.0   0.041   0.000   22.0    39    7.4   20.8   7.62 1.1930    116    1    100.0    5 
27/02/15  16:30    6.7    6.7    6.6    85    4.3  11.0   WSW   0.92  14.0   WSW    3.2    6.6    3.2  1020.5  0.00   0.0   0.041   0.000   21.9    39    7.4   20.7   7.62 1.1932    117    1    100.0    5 
27/02/15  16:35    6.7    6.7    6.7    85    4.3  10.0   WSW   0.83  13.0   WSW    3.5    6.6    3.4  1020.5  0.00   0.0   0.041   0.000   21.9    39    7.4   20.7   7.62 1.1932    117    1    100.0    5 
27/02/15  16:40    6.7    6.7    6.7    86    4.5  11.0   WSW   0.92  13.0   WSW    3.2    6.6    3.2  1020.5  0.00   0.0   0.041   0.000   21.9    39    7.3   20.6   7.62 1.1935    116    1    100.0    5 
27/02/15  16:45    6.7    6.7    6.7    85    4.3  10.0   WSW   0.83  12.0    SW    3.5    6.6    3.4  1020.5  0.00   0.0   0.041   0.000   21.9    39    7.3   20.6   7.62 1.1935    116    1    100.0    5 
27/02/15  16:50    6.7    6.7    6.7    86    4.5   9.0   WSW   0.75  12.0   WSW    3.8    6.6    3.7  1020.4  0.00   0.0   0.041   0.000   21.9    39    7.3   20.6   7.62 1.1934    115    1    100.0    5 
27/02/15  16:55    6.7    6.7    6.7    85    4.3   9.0   WSW   0.75  12.0   WSW    3.8    6.6    3.7  1020.3  0.00   0.0   0.041   0.000   21.8    39    7.3   20.6   7.62 1.1936    116    1    100.0    5 
27/02/15  17:00    6.7    6.7    6.7    86    4.5   9.0   WSW   0.75  12.0   WSW    3.8    6.6    3.7  1020.4  0.00   0.0   0.041   0.000   21.8    39    7.2   20.4   7.63 1.1939    116    1    100.0    5 
27/02/15  17:05    6.7    6.7    6.7    86    4.5   9.0   WSW   0.75  12.0    SW    3.8    6.6    3.7  1020.4  0.00   0.0   0.041   0.000   21.8    39    7.2   20.4   7.63 1.1939    117    1    100.0    5 
27/02/15  17:10    6.6    6.7    6.6    86    4.4   9.0    SW   0.75  10.0    SW    3.7    6.6    3.7  1020.3  0.00   0.0   0.041   0.000   21.8    39    7.2   20.4   7.63 1.1937    116    1    100.0    5 
27/02/15  17:15    6.7    6.7    6.6    86    4.5   9.0    SW   0.75  11.0    SW    3.8    6.6    3.7  1020.1  0.00   0.0   0.041   0.000   21.7    39    7.2   20.4   7.63 1.1938    116    1    100.0    5 
27/02/15  17:20    6.6    6.7    6.6    86    4.4   8.0    SW   0.67  10.0    SW    4.1    6.6    4.0  1020.0  0.00   0.0   0.041   0.000   21.7    39    7.1   20.3   7.63 1.1940    117    1    100.0    5 
27/02/15  17:25    6.6    6.6    6.6    86    4.4   7.0    SW   0.58  10.0    SW    4.4    6.6    4.3  1019.9  0.00   0.0   0.041   0.000   21.7    39    7.1   20.3   7.63 1.1939    117    1    100.0    5 
27/02/15  17:30    6.6    6.6    6.6    86    4.4   9.0    SW   0.75  12.0    SW    3.7    6.5    3.6  1019.8  0.00   0.0   0.041   0.000   21.6    39    7.1   20.2   7.63 1.1940    117    1    100.0    5 
27/02/15  17:35    6.6    6.6    6.6    87    4.5   9.0    SW   0.75  11.0    SW    3.7    6.6    3.7  1019.6  0.00   0.0   0.041   0.000   21.6    39    7.1   20.2   7.63 1.1938    117    1    100.0    5 
27/02/15  17:40    6.6    6.6    6.6    86    4.4   9.0    SW   0.75  11.0    SW    3.7    6.5    3.6  1019.6  0.00   0.0   0.041   0.000   21.6    39    7.1   20.2   7.63 1.1938    115    1    100.0    5 
27/02/15  17:45    6.6    6.6    6.6    86    4.4   8.0    SW   0.67  10.0    SW    4.1    6.6    4.0  1019.6  0.00   0.0   0.041   0.000   21.6    39    7.0   20.2   7.63 1.1940    116    1    100.0    5 
27/02/15  17:50    6.6    6.6    6.6    87    4.6   8.0    SW   0.67  10.0    SW    4.1    6.6    4.1  1019.7  0.00   0.0   0.041   0.000   21.5    39    7.0   20.1   7.64 1.1944    117    1    100.0    5 
27/02/15  17:55    6.6    6.6    6.6    86    4.4   7.0    SW   0.58   9.0    SW    4.3    6.5    4.3  1019.8  0.00   0.0   0.041   0.000   21.5    39    7.0   20.1   7.64 1.1946    117    1    100.0    5 
27/02/15  18:00    6.6    6.6    6.6    86    4.4   8.0    SW   0.67  10.0    SW    4.0    6.5    3.9  1019.8  0.00   0.0   0.041   0.000   21.5    39    7.0   20.1   7.64 1.1945    114    1    100.0    5 
27/02/15  18:05    6.6    6.6    6.6    86    4.4   7.0   SSW   0.58  10.0    SW    4.4    6.6    4.3  1019.5  0.00   0.0   0.041   0.000   21.4    39    6.9   20.0   7.64 1.1945    117    1    100.0    5 
27/02/15  18:10    6.6    6.7    6.6    87    4.6   7.0   SSW   0.58   9.0    SW    4.4    6.6    4.4  1019.4  0.00   0.0   0.041   0.000   21.4    39    6.9   20.0   7.64 1.1943    117    1    100.0    5 
27/02/15  18:15    6.7    6.7    6.6    87    4.7   7.0   SSW   0.58   9.0    SW    4.4    6.7    4.4  1019.3  0.00   0.0   0.041   0.000   21.4    39    6.9   19.9   7.64 1.1945    117    1    100.0    5 
27/02/15  18:20    6.7    6.7    6.7    87    4.7   7.0   SSW   0.58  10.0    SW    4.4    6.7    4.4  1019.4  0.00   0.0   0.041   0.000   21.4    39    6.9   19.9   7.64 1.1946    117    1    100.0    5 
27/02/15  18:25    6.7    6.7    6.7    87    4.7   8.0   SSW   0.67  10.0    SW    4.1    6.7    4.1  1019.3  0.00   0.0   0.041   0.000   21.3    39    6.8   19.8   7.64 1.1948    117    1    100.0    5 
27/02/15  18:30    6.7    6.7    6.7    87    4.7   7.0   SSW   0.58   9.0    SW    4.5    6.7    4.5  1019.3  0.00   0.0   0.040   0.000   21.3    39    6.8   19.8   7.64 1.1947    116    1    100.0    5 
27/02/15  18:35    6.7    6.7    6.7    87    4.7   7.0   SSW   0.58  10.0    SW    4.5    6.7    4.5  1019.2  0.00   0.0   0.040   0.000   21.3    39    6.8   19.8   7.64 1.1949    117    1    100.0    5 
27/02/15  18:40    6.8    6.8    6.7    87    4.8   7.0    SW   0.58  10.0    SW    4.6    6.8    4.6  1019.3  0.00   0.0   0.040   0.000   21.3    39    6.8   19.8   7.64 1.1950    117    1    100.0    5 
27/02/15  18:45    6.8    6.8    6.7    87    4.8   8.0   SSW   0.67  10.0    SW    4.2    6.8    4.2  1019.3  0.00   0.0   0.040   0.000   21.3    39    6.8   19.8   7.64 1.1950    116    1    100.0    5 
27/02/15  18:50    6.8    6.8    6.8    87    4.8   8.0    SW   0.67  10.0    SW    4.2    6.8    4.2  1019.3  0.00   0.0   0.040   0.000   21.3    39    6.8   19.8   7.64 1.1950    116    1    100.0    5 
27/02/15  18:55    6.8    6.8    6.8    88    4.9   7.0    SW   0.58   9.0    SW    4.6    6.8    4.6  1019.3  0.00   0.0   0.040   0.000   21.3    40    7.1   19.8   7.74 1.1947    115    1    100.0    5 
27/02/15  19:00    6.8    6.8    6.7    88    4.9   8.0    SW   0.67  11.0    SW    4.2    6.8    4.2  1019.3  0.00   0.0   0.040   0.000   21.3    40    7.2   19.9   7.74 1.1944    117    1    100.0    5 
27/02/15  19:05    6.8    6.8    6.7    88    4.9   9.0    SW   0.75  12.0    SW    3.9    6.8    3.9  1019.1  0.00   0.0   0.040   0.000   21.3    40    7.2   19.9   7.74 1.1942    117    1    100.0    5 
27/02/15  19:10    6.8    6.8    6.8    87    4.8  10.0    SW   0.83  12.0    SW    3.6    6.8    3.6  1019.0  0.00   0.0   0.040   0.000   21.3    40    7.2   19.9   7.74 1.1940    116    1    100.0    5 
27/02/15  19:15    6.8    6.8    6.7    87    4.8  11.0    SW   0.92  13.0   WSW    3.3    6.8    3.3  1018.9  0.00   0.0   0.040   0.000   21.3    40    7.2   19.9   7.74 1.1940    116    1    100.0    5 
27/02/15  19:20    6.8    6.8    6.8    87    4.8  11.0    SW   0.92  13.0    SW    3.3    6.8    3.3  1018.9  0.00   0.0   0.040   0.000   21.3    40    7.2   19.9   7.74 1.1939    117    1    100.0    5 
27/02/15  19:25    6.8    6.8    6.8    87    4.8  10.0    SW   0.83  12.0    SW    3.6    6.8    3.6  1018.8  0.00   0.0   0.040   0.000   21.4    40    7.2   19.9   7.74 1.1936    115    1    100.0    5 
27/02/15  19:30    6.8    6.8    6.8    87    4.8  10.0    SW   0.83  12.0    SW    3.6    6.8    3.6  1018.9  0.00   0.0   0.040   0.000   21.4    40    7.2   19.9   7.74 1.1937    117    1    100.0    5 
27/02/15  19:35    6.8    6.8    6.8    87    4.8  10.0    SW   0.83  13.0    SW    3.7    6.8    3.7  1018.9  0.00   0.0   0.040   0.000   21.4    40    7.2   19.9   7.74 1.1937    117    1    100.0    5 
27/02/15  19:40    6.8    6.8    6.8    87    4.8  11.0    SW   0.92  14.0    SW    3.3    6.8    3.3  1019.0  0.00   0.0   0.040   0.000   21.4    40    7.3   20.1   7.74 1.1936    117    1    100.0    5 
27/02/15  19:45    6.8    6.8    6.8    87    4.8  11.0    SW   0.92  14.0    SW    3.4    6.8    3.4  1019.0  0.00   0.0   0.040   0.000   21.5    40    7.3   20.1   7.74 1.1933    117    1    100.0    5 
27/02/15  19:50    6.8    6.8    6.8    87    4.8  11.0    SW   0.92  15.0    SW    3.4    6.8    3.4  1019.0  0.00   0.0   0.040   0.000   21.5    40    7.3   20.1   7.74 1.1933    117    1    100.0    5 
27/02/15  19:55    6.8    6.8    6.8    87    4.8  11.0    SW   0.92  15.0    SW    3.4    6.8    3.4  1019.1  0.00   0.0   0.040   0.000   21.5    41    7.7   20.2   7.92 1.1931    117    1    100.0    5 
27/02/15  20:00    6.8    6.8    6.8    87    4.8  12.0    SW   1.00  15.0    SW    3.2    6.8    3.2  1018.9  0.00   0.0   0.040   0.000   21.6    41    7.7   20.2   7.92 1.1926    117    1    100.0    5 
27/02/15  20:05    6.9    6.9    6.8    87    4.9  13.0    SW   1.08  16.0    SW    3.1    6.9    3.1  1018.9  0.00   0.0   0.040   0.000   21.6    41    7.8   20.3   7.91 1.1923    117    1    100.0    5 
27/02/15  20:10    6.9    6.9    6.8    87    4.9  12.0    SW   1.00  14.0    SW    3.3    6.9    3.3  1018.8  0.00   0.0   0.040   0.000   21.6    40    7.4   20.3   7.73 1.1925    116    1    100.0    5 
27/02/15  20:15    6.9    6.9    6.9    87    4.9  12.0   SSW   1.00  15.0    SW    3.3    6.9    3.3  1018.7  0.00   0.0   0.040   0.000   21.6    40    7.4   20.3   7.73 1.1924    115    1    100.0    5 
27/02/15  20:20    7.0    7.0    6.9    87    5.0  11.0   SSW   0.92  14.0    SW    3.6    7.0    3.6  1018.8  0.00   0.0   0.039   0.000   21.7    40    7.5   20.3   7.73 1.1922    115    1    100.0    5 
27/02/15  20:25    7.0    7.0    7.0    87    5.0  12.0   SSW   1.00  16.0   SSW    3.4    7.0    3.4  1018.8  0.00   0.0   0.039   0.000   21.7    40    7.5   20.3   7.73 1.1922    117    1    100.0    5 
27/02/15  20:30    7.1    7.1    7.0    86    4.9  13.0   SSW   1.08  17.0    SW    3.2    7.0    3.2  1018.7  0.00   0.0   0.039   0.000   21.7    40    7.5   20.3   7.73 1.1921    116    1    100.0    5 
27/02/15  20:35    7.1    7.1    7.1    87    5.0  14.0   SSW   1.17  17.0    SW    3.1    7.1    3.1  1018.7  0.00   0.0   0.039   0.000   21.7    40    7.5   20.3   7.73 1.1921    116    1    100.0    5 
27/02/15  20:40    7.1    7.1    7.1    87    5.1  14.0    SW   1.17  17.0    SW    3.1    7.1    3.1  1018.6  0.00   0.0   0.039   0.000   21.7    40    7.5   20.3   7.73 1.1920    116    1    100.0    5 
27/02/15  20:45    7.1    7.1    7.1    87    5.1  14.0   SSW   1.17  19.0    SW    3.1    7.1    3.1  1018.5  0.00   0.0   0.039   0.000   21.7    40    7.5   20.3   7.73 1.1919    117    1    100.0    5 
27/02/15  20:50    7.1    7.1    7.1    88    5.2  14.0   SSW   1.17  18.0     S    3.1    7.1    3.1  1018.5  0.00   0.0   0.039   0.000   21.7    40    7.5   20.4   7.73 1.1916    115    1    100.0    5 
27/02/15  20:55    7.1    7.1    7.0    87    5.0  15.0   SSW   1.25  18.0   SSW    2.9    7.1    2.9  1018.4  0.00   0.0   0.039   0.000   21.7    40    7.5   20.4   7.73 1.1915    118    1    100.0    5 
27/02/15  21:00    7.0    7.1    7.0    87    5.0  14.0   SSW   1.17  17.0    SW    3.0    7.0    3.0  1018.5  0.00   0.0   0.039   0.000   21.7    40    7.5   20.4   7.73 1.1916    116    1    100.0    5 
27/02/15  21:05    7.0    7.0    7.0    87    5.0  14.0   SSW   1.17  17.0     S    3.0    7.0    3.0  1018.4  0.00   0.0   0.039   0.000   21.7    40    7.5   20.4   7.73 1.1915    116    1    100.0    5 
27/02/15  21:10    7.0    7.1    7.0    87    5.0  14.0   SSW   1.17  18.0   SSW    3.0    7.0    3.0  1018.3  0.00   0.0   0.039   0.000   21.7    40    7.5   20.4   7.73 1.1914    116    1    100.0    5 
27/02/15  21:15    7.0    7.1    7.0    87    5.0  14.0   SSW   1.17  18.0   SSW    3.0    7.0    3.0  1018.3  0.00   0.0   0.039   0.000   21.7    40    7.5   20.3   7.73 1.1916    117    1    100.0    5 
27/02/15  21:20    7.1    7.1    7.0    87    5.0  14.0   SSW   1.17  18.0     S    3.1    7.1    3.1  1018.2  0.00   0.0   0.039   0.000   21.7    39    7.2   20.4   7.63 1.1915    117    1    100.0    5 
27/02/15  21:25    7.1    7.1    7.1    87    5.0  15.0   SSW   1.25  17.0   SSW    2.9    7.1    2.9  1018.1  0.00   0.0   0.039   0.000   21.7    39    7.1   20.3   7.63 1.1917    116    1    100.0    5 
27/02/15  21:30    7.1    7.1    7.1    87    5.0  15.0   SSW   1.25  21.0     S    2.9    7.1    2.9  1017.9  0.00   0.0   0.039   0.000   21.7    39    7.1   20.3   7.63 1.1915    117    1    100.0    5 
27/02/15  21:35    7.1    7.1    7.1    86    4.9  15.0   SSW   1.25  20.0    SW    2.9    7.0    2.8  1017.9  0.00   0.0   0.039   0.000   21.7    39    7.1   20.3   7.63 1.1915    117    1    100.0    5 
27/02/15  21:40    7.0    7.1    7.0    86    4.8  16.0   SSW   1.33  20.0   SSW    2.7    6.9    2.6  1017.9  0.00   0.0   0.039   0.000   21.7    39    7.1   20.3   7.63 1.1915    115    1    100.0    5 
27/02/15  21:45    7.1    7.1    7.0    87    5.0  15.0   SSW   1.25  19.0     S    2.9    7.1    2.9  1017.8  0.00   0.0   0.039   0.000   21.6    39    7.1   20.2   7.63 1.1917    115    1    100.0    5 
27/02/15  21:50    7.1    7.1    7.1    86    4.9  16.0   SSW   1.33  21.0   SSW    2.7    7.0    2.7  1017.7  0.00   0.0   0.039   0.000   21.6    39    7.1   20.2   7.63 1.1915    117    1    100.0    5 
27/02/15  21:55    7.1    7.1    7.1    87    5.0  17.0   SSW   1.42  21.0   SSW    2.6    7.1    2.6  1017.6  0.00   0.0   0.039   0.000   21.6    39    7.1   20.2   7.63 1.1914    116    1    100.0    5 
27/02/15  22:00    7.1    7.1    7.1    87    5.0  17.0   SSW   1.42  22.0     S    2.6    7.1    2.6  1017.6  0.00   0.0   0.039   0.000   21.6    39    7.1   20.2   7.63 1.1915    117    1    100.0    5 
27/02/15  22:05    7.0    7.1    7.0    87    5.0  15.0   SSW   1.25  20.0   SSW    2.8    7.0    2.8  1017.7  0.00   0.0   0.039   0.000   21.6    39    7.0   20.2   7.63 1.1918    115    1    100.0    5 
27/02/15  22:10    7.1    7.1    7.0    88    5.2  15.0   SSW   1.25  21.0   SSW    2.9    7.1    2.9  1017.7  0.00   0.0   0.039   0.000   21.6    39    7.0   20.2   7.63 1.1918    115    1    100.0    5 
27/02/15  22:15    7.0    7.1    7.0    88    5.1  15.0   SSW   1.25  20.0    SW    2.8    7.0    2.8  1017.5  0.00   0.0   0.039   0.000   21.5    39    7.0   20.1   7.64 1.1919    116    1    100.0    5 
27/02/15  22:20    7.1    7.1    7.0    88    5.2  14.0   SSW   1.17  20.0   SSW    3.1    7.1    3.1  1017.6  0.00   0.0   0.039   0.000   21.5    39    7.0   20.1   7.64 1.1919    115    1    100.0    5 
27/02/15  22:25    7.1    7.1    7.1    88    5.2  15.0   SSW   1.25  20.0   SSW    2.9    7.1    2.9  1017.5  0.00   0.0   0.039   0.000   21.4    39    6.9   20.0   7.64 1.1921    117    1    100.0    5 
27/02/15  22:30    7.1    7.1    7.1    88    5.2  15.0   SSW   1.25  18.0   SSW    2.9    7.1    2.9  1017.5  0.00   0.0   0.039   0.000   21.4    39    6.9   20.0   7.64 1.1921    115    1    100.0    5 
27/02/15  22:35    7.1    7.1    7.1    88    5.2  16.0   SSW   1.33  21.0     S    2.7    7.1    2.7  1017.3  0.00   0.0   0.039   0.000   21.4    39    6.9   19.9   7.64 1.1922    116    1    100.0    5 
27/02/15  22:40    7.1    7.1    7.1    88    5.2  17.0   SSW   1.42  23.0   SSW    2.6    7.1    2.6  1017.3  0.00   0.0   0.039   0.000   21.4    39    6.9   19.9   7.64 1.1921    116    1    100.0    5 
27/02/15  22:45    7.1    7.1    7.1    88    5.2  18.0   SSW   1.50  23.0     S    2.4    7.1    2.4  1017.0  0.00   0.0   0.039   0.000   21.3    39    6.8   19.8   7.64 1.1920    117    1    100.0    5 
27/02/15  22:50    7.1    7.1    7.1    88    5.2  17.0   SSW   1.42  22.0     S    2.6    7.1    2.6  1017.0  0.00   0.0   0.039   0.000   21.3    39    6.8   19.8   7.64 1.1923    116    1    100.0    5 
27/02/15  22:55    7.1    7.1    7.1    88    5.2  19.0   SSW   1.58  23.0   SSW    2.3    7.1    2.3  1016.8  0.00   0.0   0.039   0.000   21.3    39    6.8   19.8   7.64 1.1921    117    1    100.0    5 
27/02/15  23:00    7.0    7.1    7.0    89    5.3  17.0   SSW   1.42  22.0     S    2.5    7.1    2.6  1016.8  0.00   0.0   0.039   0.000   21.2    39    6.7   19.7   7.65 1.1923    117    1    100.0    5 
27/02/15  23:05    6.9    7.0    6.9    89    5.3  17.0   SSW   1.42  22.0   SSW    2.4    7.0    2.4  1016.8  0.00   0.0   0.040   0.000   21.2    39    6.7   19.7   7.65 1.1923    115    1    100.0    5 
27/02/15  23:10    6.9    6.9    6.9    89    5.3  17.0   SSW   1.42  22.0   SSW    2.4    7.0    2.4  1016.8  0.00   0.0   0.040   0.000   21.2    39    6.7   19.6   7.65 1.1926    117    1    100.0    5 
27/02/15  23:15    6.9    6.9    6.9    89    5.3  17.0   SSW   1.42  21.0     S    2.4    7.0    2.4  1016.8  0.00   0.0   0.040   0.000   21.1    39    6.6   19.6   7.65 1.1928    117    1    100.0    5 
27/02/15  23:20    6.9    7.0    6.9    89    5.3  16.0   SSW   1.33  21.0     S    2.6    7.0    2.7  1016.8  0.00   0.0   0.040   0.000   21.1    39    6.6   19.5   7.65 1.1931    117    1    100.0    5 
27/02/15  23:25    6.9    6.9    6.9    89    5.3  16.0   SSW   1.33  20.0     S    2.6    7.0    2.7  1016.7  0.00   0.0   0.040   0.000   21.1    39    6.6   19.5   7.65 1.1929    117    1    100.0    5 
27/02/15  23:30    7.0    7.0    6.9    89    5.3  16.0   SSW   1.33  19.0   SSW    2.7    7.1    2.7  1016.5  0.00   0.0   0.039   0.000   21.0    39    6.5   19.5   7.65 1.1930    116    1    100.0    5 
27/02/15  23:35    6.9    6.9    6.9    89    5.3  15.0   SSW   1.25  18.0     S    2.8    7.0    2.8  1016.4  0.00   0.0   0.040   0.000   20.9    39    6.5   19.4   7.66 1.1932    115    1    100.0    5 
27/02/15  23:40    6.9    6.9    6.9    89    5.3  15.0   SSW   1.25  19.0     S    2.8    7.0    2.8  1016.3  0.00   0.0   0.040   0.000   20.9    39    6.5   19.4   7.66 1.1930    116    1    100.0    5 
27/02/15  23:45    7.0    7.0    6.9    89    5.3  14.0   SSW   1.17  18.0     S    3.0    7.1    3.1  1016.3  0.00   0.0   0.039   0.000   20.9    39    6.4   19.4   7.66 1.1933    116    1    100.0    5 
27/02/15  23:50    7.0    7.0    6.9    89    5.3  16.0   SSW   1.33  21.0   SSW    2.7    7.1    2.7  1016.2  0.00   0.0   0.039   0.000   20.8    39    6.4   19.3   7.66 1.1935    117    1    100.0    5 
27/02/15  23:55    7.1    7.1    7.0    88    5.2  14.0   SSW   1.17  19.0   SSW    3.1    7.1    3.1  1016.3  0.00   0.0   0.039   0.000   20.8    39    6.4   19.3   7.66 1.1936    115    1    100.0    5 
28/02/15  00:00    7.1    7.1    7.0    88    5.2  16.0   SSW   1.33  21.0   SSW    2.7    7.1    2.7  1016.1  0.00   0.0   0.039   0.000   20.8    39    6.3   19.3   7.66 1.1936    116    1    100.0    5 
28/02/15   0:05    7.1    7.1    7.1    87    5.1  17.0   SSW   1.42  23.0   SSW    2.6    7.1    2.6  1016.1  0.00   0.0   0.039   0.000   20.7    39    6.3   19.3   7.66 1.1939    115    1    100.0    5 
28/02/15   0:10    7.2    7.2    7.1    87    5.1  17.0   SSW   1.42  21.0   SSW    2.7    7.2    2.7  1016.1  0.00   0.0   0.039   0.000   20.7    39    6.3   19.3   7.66 1.1938    115    1    100.0    5 
28/02/15   0:15    7.2    7.2    7.2    86    5.0  17.0   SSW   1.42  23.0   SSW    2.7    7.1    2.6  1016.0  0.00   0.0   0.039   0.000   20.7    39    6.2   19.2   7.67 1.1940    116    1    100.0    5 
28/02/15   0:20    7.2    7.2    7.1    85    4.8  17.0   SSW   1.42  22.0   SSW    2.7    7.1    2.6  1016.0  0.00   0.0   0.039   0.000   20.7    39    6.2   19.2   7.67 1.1940    117    1    100.0    5 
28/02/15   0:25    7.2    7.2    7.2    84    4.6  18.0   SSW   1.50  24.0    SW    2.6    7.1    2.5  1015.9  0.00   0.0   0.039   0.000   20.6    39    6.2   19.2   7.67 1.1941    116    1    100.0    5 
28/02/15   0:30    7.2    7.2    7.2    84    4.6  18.0   SSW   1.50  22.0   SSW    2.6    7.1    2.5  1015.8  0.00   0.0   0.039   0.000   20.6    39    6.1   19.2   7.67 1.1943    117    1    100.0    5 
28/02/15   0:35    7.2    7.2    7.2    84    4.7  17.0   SSW   1.42  22.0     S    2.7    7.2    2.7  1015.9  0.00   0.0   0.039   0.000   20.6    39    6.1   19.2   7.67 1.1944    117    1    100.0    5 
28/02/15   0:40    7.2    7.2    7.2    84    4.7  17.0   SSW   1.42  21.0   SSW    2.7    7.2    2.7  1015.8  0.00   0.0   0.039   0.000   20.5    39    6.1   19.1   7.67 1.1945    117    1    100.0    5 
28/02/15   0:45    7.2    7.2    7.2    84    4.7  16.0   SSW   1.33  21.0   SSW    2.9    7.2    2.8  1015.5  0.00   0.0   0.039   0.000   20.5    39    6.1   19.1   7.67 1.1943    117    1    100.0    5 
28/02/15   0:50    7.2    7.2    7.2    85    4.9  17.0   SSW   1.42  21.0   SSW    2.7    7.2    2.7  1015.4  0.00   0.0   0.039   0.000   20.4    39    6.0   19.1   7.67 1.1943    116    1    100.0    5 
28/02/15   0:55    7.2    7.2    7.2    84    4.6  17.0   SSW   1.42  22.0   SSW    2.7    7.1    2.6  1015.3  0.00   0.0   0.039   0.000   20.4    39    6.0   19.1   7.67 1.1942    117    1    100.0    5 
28/02/15   1:00    7.2    7.2    7.2    84    4.6  18.0   SSW   1.50  23.0   SSW    2.6    7.1    2.5  1015.2  0.00   0.0   0.039   0.000   20.4    39    6.0   19.0   7.68 1.1943    117    1    100.0    5 
28/02/15   1:05    7.2    7.2    7.2    85    4.9  18.0   SSW   1.50  23.0    SW    2.6    7.2    2.6  1015.2  0.00   0.0   0.039   0.000   20.3    39    5.9   18.9   7.68 1.1946    117    1    100.0    5 
28/02/15   1:10    7.2    7.2    7.2    85    4.8  16.0   SSW   1.33  20.0   SSW    2.8    7.1    2.8  1015.1  0.00   0.0   0.039   0.000   20.3    39    5.9   18.9   7.68 1.1945    116    1    100.0    5 
28/02/15   1:15    7.2    7.2    7.1    86    5.0  17.0   SSW   1.42  21.0   SSW    2.7    7.1    2.6  1015.1  0.00   0.0   0.039   0.000   20.3    39    5.9   18.9   7.68 1.1948    117    1    100.0    5 
28/02/15   1:20    7.1    7.2    7.1    85    4.8  17.0   SSW   1.42  22.0     S    2.6    7.1    2.6  1014.9  0.00   0.0   0.039   0.000   20.2    39    5.8   18.8   7.68 1.1948    116    1    100.0    5 
28/02/15   1:25    7.1    7.1    7.1    86    4.9  17.0   SSW   1.42  21.0     S    2.6    7.1    2.6  1014.8  0.00   0.0   0.039   0.000   20.2    39    5.8   18.8   7.68 1.1947    117    1    100.0    5 
28/02/15   1:30    7.1    7.1    7.1    86    4.9  16.0   SSW   1.33  20.0     S    2.8    7.1    2.7  1014.7  0.00   0.0   0.039   0.000   20.2    39    5.8   18.8   7.68 1.1949    116    1    100.0    5 
28/02/15   1:35    7.1    7.1    7.1    87    5.1  17.0   SSW   1.42  21.0   SSW    2.6    7.1    2.6  1014.6  0.00   0.0   0.039   0.000   20.2    39    5.8   18.8   7.68 1.1947    118    1    100.0    5 
28/02/15   1:40    7.1    7.1    7.1    87    5.1  16.0   SSW   1.33  20.0     S    2.8    7.1    2.8  1014.6  0.00   0.0   0.039   0.000   20.1    39    5.7   18.7   7.69 1.1949    117    1    100.0    5 
28/02/15   1:45    7.1    7.1    7.1    87    5.1  16.0   SSW   1.33  21.0   SSW    2.8    7.1    2.8  1014.5  0.00   0.0   0.039   0.000   20.1    39    5.7   18.7   7.69 1.1951    117    1    100.0    5 
28/02/15   1:50    7.1    7.2    7.1    87    5.1  16.0   SSW   1.33  20.0     S    2.8    7.1    2.8  1014.5  0.00   0.0   0.039   0.000   20.1    39    5.7   18.7   7.69 1.1951    116    1    100.0    5 
28/02/15   1:55    7.2    7.2    7.2    87    5.1  15.0   SSW   1.25  21.0     S    3.0    7.2    3.0  1014.4  0.00   0.0   0.039   0.000   20.0    39    5.6   18.6   7.69 1.1953    117    1    100.0    5 
28/02/15   2:00    7.2    7.2    7.2    86    5.0  16.0   SSW   1.33  20.0   SSW    2.9    7.2    2.8  1014.4  0.00   0.0   0.039   0.000   20.0    39    5.6   18.6   7.69 1.1953    115    1    100.0    5 
28/02/15   2:05    7.2    7.2    7.2    86    5.0  15.0   SSW   1.25  19.0   SSW    3.1    7.2    3.0  1014.3  0.00   0.0   0.039   0.000   19.9    39    5.6   18.6   7.69 1.1954    114    1    100.0    5 
28/02/15   2:10    7.3    7.3    7.2    86    5.1  16.0   SSW   1.33  21.0   SSW    2.9    7.2    2.9  1014.2  0.00   0.0   0.038   0.000   19.9    39    5.6   18.6   7.69 1.1953    117    1    100.0    5 
28/02/15   2:15    7.3    7.3    7.2    86    5.1  16.0   SSW   1.33  21.0     S    2.9    7.2    2.9  1014.2  0.00   0.0   0.038   0.000   19.9    39    5.5   18.5   7.69 1.1956    117    1    100.0    5 
28/02/15   2:20    7.3    7.3    7.2    85    4.9  16.0   SSW   1.33  21.0   SSW    2.9    7.2    2.9  1014.1  0.00   0.0   0.038   0.000   19.8    39    5.5   18.4   7.70 1.1957    117    1    100.0    5 
28/02/15   2:25    7.3    7.3    7.3    85    4.9  16.0   SSW   1.33  21.0   SSW    2.9    7.2    2.9  1014.1  0.00   0.0   0.038   0.000   19.8    39    5.5   18.4   7.70 1.1957    117    1    100.0    5 
28/02/15   2:30    7.3    7.3    7.3    85    4.9  17.0   SSW   1.42  23.0   SSW    2.8    7.2    2.7  1014.1  0.00   0.0   0.038   0.000   19.8    39    5.5   18.4   7.70 1.1957    117    1    100.0    5 
28/02/15   2:35    7.3    7.3    7.3    86    5.1  16.0   SSW   1.33  20.0     S    3.0    7.3    3.0  1014.1  0.00   0.0   0.038   0.000   19.8    39    5.4   18.3   7.70 1.1959    117    1    100.0    5 
28/02/15   2:40    7.3    7.3    7.3    86    5.1  15.0   SSW   1.25  19.0   SSW    3.2    7.3    3.2  1014.0  0.00   0.0   0.038   0.000   19.8    39    5.4   18.3   7.70 1.1958    117    1    100.0    5 
28/02/15   2:45    7.3    7.3    7.3    86    5.1  16.0   SSW   1.33  20.0   SSW    3.0    7.3    3.0  1013.9  0.00   0.0   0.038   0.000   19.7    39    5.4   18.3   7.70 1.1960    116    1    100.0    5 
28/02/15   2:50    7.3    7.3    7.3    87    5.3  17.0   SSW   1.42  22.0   SSW    2.8    7.3    2.8  1013.9  0.00   0.0   0.038   0.000   19.7    39    5.4   18.3   7.70 1.1960    117    1    100.0    5 
28/02/15   2:55    7.3    7.3    7.3    86    5.1  21.0   SSW   1.75  28.0    SW    2.3    7.3    2.3  1014.0  0.00   0.0   0.038   0.000   19.7    39    5.3   18.2   7.70 1.1964    117    1    100.0    5 
28/02/15   3:00    7.2    7.3    7.2    87    5.2  21.0    SW   1.75  26.0    SW    2.2    7.2    2.2  1013.9  0.00   0.0   0.039   0.000   19.6    39    5.3   18.2   7.70 1.1965    117    1    100.0    5 
28/02/15   3:05    7.2    7.2    7.2    88    5.3  21.0   SSW   1.75  26.0   SSW    2.1    7.2    2.1  1013.9  0.00   0.0   0.039   0.000   19.6    39    5.3   18.2   7.70 1.1965    117    1    100.0    5 
28/02/15   3:10    7.0    7.2    7.0    90    5.5  20.0   SSW   1.67  26.0   SSW    2.1    7.1    2.1  1013.8  0.00   0.0   0.039   0.000   19.6    39    5.3   18.2   7.70 1.1963    117    1    100.0    5 
28/02/15   3:15    6.9    7.0    6.9    91    5.5  20.0   SSW   1.67  27.0   SSW    1.9    6.9    2.0  1013.8  0.00   0.0   0.040   0.000   19.6    39    5.2   18.1   7.71 1.1967    117    1    100.0    5 
28/02/15   3:20    6.9    6.9    6.9    91    5.5  19.0   SSW   1.58  26.0   SSW    2.1    6.9    2.1  1013.7  0.00   0.0   0.040   0.000   19.5    40    5.5   18.1   7.81 1.1965    115    1    100.0    5 
28/02/15   3:25    6.9    6.9    6.9    91    5.5  18.0   SSW   1.50  22.0    SW    2.2    6.9    2.3  1013.6  0.00   0.0   0.040   0.000   19.5    40    5.5   18.1   7.81 1.1964    117    1    100.0    5 
28/02/15   3:30    6.9    6.9    6.9    91    5.5  19.0   SSW   1.58  25.0     S    2.1    6.9    2.1  1013.4  0.00   0.0   0.040   0.000   19.4    40    5.5   18.1   7.81 1.1965    117    1    100.0    5 
28/02/15   3:35    6.9    6.9    6.8    92    5.7  20.0   SSW   1.67  26.0   SSW    1.9    6.9    2.0  1013.4  0.00   0.0   0.040   0.000   19.4    40    5.4   18.0   7.81 1.1968    117    1    100.0    5 
28/02/15   3:40    6.9    6.9    6.8    92    5.7  20.0   SSW   1.67  25.0     S    1.9    6.9    2.0  1013.4  0.00   0.0   0.040   0.000   19.4    40    5.4   18.0   7.81 1.1967    117    1    100.0    5 
28/02/15   3:45    6.9    7.0    6.9    91    5.6  21.0   SSW   1.75  27.0     S    1.8    7.0    1.9  1013.3  0.00   0.0   0.040   0.000   19.3    40    5.4   17.9   7.81 1.1969    117    1    100.0    5 
28/02/15   3:50    7.0    7.0    6.9    92    5.8  22.0   SSW   1.83  27.0   SSW    1.8    7.1    1.9  1013.3  0.00   0.0   0.039   0.000   19.3    40    5.3   17.9   7.82 1.1971    116    1    100.0    5 
28/02/15   3:55    6.9    7.0    6.9    92    5.7  22.0   SSW   1.83  27.0     S    1.8    7.0    1.8  1013.3  0.00   0.0   0.040   0.000   19.3    40    5.3   17.9   7.82 1.1972    117    1    100.0    5 
28/02/15   4:00    6.9    6.9    6.9    92    5.7  22.0   SSW   1.83  27.0     S    1.7    6.9    1.7  1013.3  0.00   0.0   0.040   0.000   19.2    40    5.3   17.8   7.82 1.1974    117    1    100.0    5 
28/02/15   4:05    6.8    6.9    6.8    93    5.8  21.0   SSW   1.75  27.0     S    1.7    6.9    1.8  1013.3  0.00   0.0   0.040   0.000   19.2    40    5.3   17.8   7.82 1.1974    116    1    100.0    5 
28/02/15   4:10    6.8    6.8    6.8    93    5.8  21.0   SSW   1.75  26.0     S    1.7    6.9    1.8  1013.2  0.00   0.0   0.040   0.000   19.2    40    5.2   17.8   7.82 1.1975    117    1    100.0    5 
28/02/15   4:15    6.8    6.8    6.8    93    5.8  22.0   SSW   1.83  27.0     S    1.6    6.9    1.7  1013.1  0.00   0.0   0.040   0.000   19.1    40    5.2   17.7   7.82 1.1977    116    1    100.0    5 
28/02/15   4:20    6.8    6.8    6.8    93    5.8  20.0   SSW   1.67  25.0   SSW    1.9    6.9    2.0  1013.1  0.00   0.0   0.040   0.000   19.1    40    5.2   17.7   7.82 1.1976    117    1    100.0    5 
28/02/15   4:25    6.8    6.8    6.8    93    5.8  21.0   SSW   1.75  25.0     S    1.7    6.9    1.8  1012.9  0.00   0.0   0.040   0.000   19.1    40    5.2   17.7   7.82 1.1974    117    1    100.0    5 
28/02/15   4:30    6.8    6.8    6.8    93    5.8  22.0   SSW   1.83  27.0     S    1.6    6.9    1.7  1012.7  0.00   0.0   0.040   0.000   19.0    41    5.4   17.6   7.95 1.1974    117    1    100.0    5 
28/02/15   4:35    6.8    6.8    6.8    93    5.8  21.0     S   1.75  27.0     S    1.7    6.9    1.8  1012.6  0.00   0.0   0.040   0.000   19.0    41    5.4   17.6   7.95 1.1973    114    1    100.0    5 
28/02/15   4:40    6.8    6.8    6.8    93    5.8  22.0     S   1.83  27.0     S    1.6    6.9    1.7  1012.5  0.00   0.0   0.040   0.000   19.0    41    5.4   17.6   7.95 1.1973    116    1    100.0    5 
28/02/15   4:45    6.8    6.8    6.8    93    5.8  23.0     S   1.92  27.0     S    1.5    6.9    1.6  1012.4  0.00   0.0   0.040   0.000   18.9    41    5.4   17.6   7.95 1.1974    116    1    100.0    5 
28/02/15   4:50    6.9    6.9    6.8    93    5.8  23.0     S   1.92  27.0     S    1.6    7.0    1.7  1012.4  0.00   0.0   0.040   0.000   18.9    41    5.3   17.5   7.95 1.1977    117    1    100.0    5 
28/02/15   4:55    6.9    6.9    6.9    93    5.8  22.0     S   1.83  27.0     S    1.7    7.0    1.8  1012.4  0.00   0.0   0.040   0.000   18.9    41    5.3   17.5   7.95 1.1977    116    1    100.0    5 
28/02/15   5:00    6.9    6.9    6.9    93    5.9  22.0     S   1.83  26.0     S    1.8    7.1    1.9  1012.3  0.00   0.0   0.040   0.000   18.8    41    5.3   17.4   7.95 1.1978    117    1    100.0    5 
28/02/15   5:05    6.9    7.0    6.9    93    5.9  21.0     S   1.75  26.0     S    1.8    7.1    1.9  1012.2  0.00   0.0   0.040   0.000   18.8    41    5.2   17.4   7.95 1.1979    117    1    100.0    5 
28/02/15   5:10    7.0    7.0    6.9    92    5.8  24.0     S   2.00  30.0     S    1.6    7.1    1.7  1012.1  0.00   0.0   0.039   0.000   18.8    41    5.2   17.4   7.95 1.1978    116    1    100.0    5 
28/02/15   5:15    7.1    7.1    7.0    92    5.8  25.0     S   2.08  31.0   SSW    1.6    7.1    1.6  1012.0  0.00   0.0   0.039   0.000   18.7    41    5.2   17.3   7.95 1.1979    117    1    100.0    5 
28/02/15   5:20    7.1    7.1    7.1    92    5.8  24.0     S   2.00  28.0     S    1.7    7.1    1.7  1012.0  0.00   0.0   0.039   0.000   18.7    41    5.2   17.3   7.95 1.1979    117    1    100.0    5 
28/02/15   5:25    7.0    7.1    7.0    92    5.8  23.0     S   1.92  30.0   SSW    1.7    7.1    1.8  1012.0  0.00   0.0   0.039   0.000   18.7    41    5.1   17.3   7.95 1.1982    117    1    100.0    5 
28/02/15   5:30    7.0    7.1    7.0    93    5.9  24.0     S   2.00  28.0   SSW    1.6    7.1    1.7  1011.9  0.00   0.0   0.039   0.000   18.7    41    5.1   17.3   7.95 1.1981    116    1    100.0    5 
28/02/15   5:35    7.0    7.0    7.0    93    5.9  23.0     S   1.92  27.0     S    1.7    7.1    1.8  1011.8  0.00   0.0   0.039   0.000   18.6    41    5.1   17.2   7.95 1.1982    117    1    100.0    5 
28/02/15   5:40    7.0    7.0    7.0    93    5.9  23.0     S   1.92  29.0     S    1.7    7.1    1.8  1011.7  0.00   0.0   0.039   0.000   18.6    41    5.1   17.2   7.95 1.1981    116    1    100.0    5 
28/02/15   5:45    6.9    7.0    6.9    93    5.9  26.0     S   2.17  31.0   SSW    1.3    7.1    1.4  1011.6  0.00   0.0   0.040   0.000   18.6    42    5.4   17.2   8.14 1.1980    117    1    100.0    5 
28/02/15   5:50    6.9    6.9    6.9    94    6.0  25.0     S   2.08  30.0   SSW    1.3    7.0    1.4  1011.5  0.00   0.0   0.040   0.000   18.5    42    5.3   17.2   8.14 1.1981    116    1    100.0    5 
28/02/15   5:55    6.8    6.9    6.8    94    5.9  25.0     S   2.08  32.0   SSW    1.3    6.9    1.4  1011.4  0.00   0.0   0.040   0.000   18.5    42    5.3   17.2   8.14 1.1981    117    1    100.0    5 
28/02/15   6:00    6.8    6.8    6.8    94    5.9  24.0     S   2.00  28.0     S    1.4    6.9    1.5  1011.6  0.00   0.0   0.040   0.000   18.4    42    5.3   17.1   8.15 1.1985    117    1    100.0    5 
28/02/15   6:05    6.8    6.8    6.8    95    6.0  25.0     S   2.08  29.0     S    1.2    6.9    1.3  1011.4  0.00   0.0   0.040   0.000   18.4    42    5.3   17.1   8.15 1.1984    117    1    100.0    5 
28/02/15   6:10    6.8    6.8    6.8    95    6.1  24.0     S   2.00  29.0     S    1.4    6.9    1.5  1011.3  0.00   0.0   0.040   0.000   18.4    42    5.2   17.1   8.15 1.1985    117    1    100.0    5 
28/02/15   6:15    6.8    6.8    6.8    95    6.1  24.0     S   2.00  30.0     S    1.4    6.9    1.5  1011.2  0.00   0.0   0.040   0.000   18.3    42    5.2   17.0   8.15 1.1986    117    1    100.0    5 
28/02/15   6:20    6.8    6.9    6.8    95    6.1  24.0     S   2.00  30.0     S    1.4    6.9    1.5  1011.2  0.00   0.0   0.040   0.000   18.3    42    5.2   17.0   8.15 1.1986    116    1    100.0    5 
28/02/15   6:25    6.9    6.9    6.8    95    6.1  24.0     S   2.00  28.0   SSW    1.4    7.0    1.6  1011.3  0.00   0.0   0.040   0.000   18.3    42    5.2   17.0   8.15 1.1987    117    1    100.0    5 
28/02/15   6:30    6.9    6.9    6.9    95    6.2  24.0   SSW   2.00  27.0   SSW    1.6    7.1    1.7  1011.4  0.00   0.0   0.040   0.000   18.3    42    5.2   17.0   8.15 1.1989    115    1    100.0    5 
28/02/15   6:35    6.9    6.9    6.9    95    6.2  21.0   SSW   1.75  29.0     S    1.8    7.1    1.9  1011.8  0.00   0.0   0.040   0.000   18.3    42    5.1   16.9   8.15 1.1995    116    1    100.0    5 
28/02/15   6:40    7.0    7.0    6.9    95    6.3  21.0   SSW   1.75  28.0   SSW    1.9    7.1    2.1  1011.7  0.00   0.0   0.039   0.000   18.3    42    5.1   16.9   8.15 1.1995    116    1    100.0    5 
28/02/15   6:45    7.0    7.0    7.0    95    6.3  21.0   SSW   1.75  27.0   SSW    1.9    7.1    2.1  1011.7  0.00   0.0   0.039   0.000   18.2    43    5.4   16.9   8.25 1.1995    117    1    100.0    5 
28/02/15   6:50    7.0    7.1    7.0    95    6.3  20.0   SSW   1.67  25.0    SW    2.1    7.1    2.2  1011.6  0.00   0.0   0.039   0.000   18.2    43    5.4   16.9   8.25 1.1994    117    1    100.0    5 
28/02/15   6:55    7.1    7.1    7.1    95    6.3  22.0   SSW   1.83  31.0     S    1.9    7.2    2.0  1011.6  0.00   0.0   0.039   0.000   18.2    43    5.4   16.9   8.25 1.1993    118    1    100.0    5 
28/02/15   7:00    7.0    7.1    7.0    95    6.3  21.0   SSW   1.75  28.0     S    1.9    7.1    2.1  1011.5  0.00   0.0   0.039   0.000   18.2    43    5.4   16.8   8.26 1.1995    117    1    100.0    5 
28/02/15   7:05    7.0    7.1    7.0    95    6.3  21.0   SSW   1.75  27.0     S    1.9    7.1    2.1  1011.6  0.00   0.0   0.039   0.000   18.2    43    5.4   16.8   8.26 1.1996    116    1    100.0    5 
28/02/15   7:10    7.0    7.1    7.0    95    6.3  21.0   SSW   1.75  27.0    SW    1.9    7.1    2.1  1011.6  0.00   0.0   0.039   0.000   18.1    43    5.3   16.8   8.26 1.1999    117    1    100.0    5 
28/02/15   7:15    7.0    7.0    7.0    95    6.3  19.0   SSW   1.58  24.0     S    2.2    7.1    2.3  1011.6  0.00   0.0   0.039   0.000   18.1    43    5.3   16.7   8.26 1.2001    117    1    100.0    5 
28/02/15   7:20    7.1    7.1    7.0    96    6.5  19.0   SSW   1.58  23.0   SSW    2.3    7.2    2.4  1011.7  0.00   0.0   0.039   0.000   18.1    43    5.3   16.7   8.26 1.2002    117    1    100.0    5 
28/02/15   7:25    7.0    7.1    7.0    96    6.4  19.0   SSW   1.58  23.0    SW    2.2    7.1    2.3  1011.6  0.00   0.0   0.039   0.000   18.1    43    5.3   16.7   8.26 1.2002    115    1    100.0    5 
28/02/15   7:30    7.1    7.1    7.0    96    6.5  19.0   SSW   1.58  25.0   SSW    2.3    7.2    2.4  1011.6  0.00   0.0   0.039   0.000   18.1    43    5.3   16.7   8.26 1.2001    115    1    100.0    5 
28/02/15   7:35    7.1    7.1    7.0    96    6.5  18.0   SSW   1.50  24.0    SW    2.4    7.2    2.5  1011.4  0.00   0.0   0.039   0.000   18.0    43    5.2   16.7   8.26 1.2002    116    1    100.0    5 
28/02/15   7:40    7.1    7.1    7.1    96    6.5  19.0   SSW   1.58  27.0     S    2.3    7.2    2.4  1011.3  0.00   0.0   0.039   0.000   18.0    43    5.2   16.7   8.26 1.2001    117    1    100.0    5 
28/02/15   7:45    7.1    7.1    7.1    96    6.5  20.0   SSW   1.67  23.0     S    2.1    7.2    2.2  1011.2  0.00   0.0   0.039   0.000   18.0    43    5.2   16.7   8.26 1.1999    116    1    100.0    5 
28/02/15   7:50    7.1    7.1    7.1    96    6.5  20.0   SSW   1.67  25.0   SSW    2.1    7.2    2.2  1011.0  0.00   0.0   0.039   0.000   18.0    43    5.2   16.7   8.26 1.1998    117    1    100.0    5 
28/02/15   7:55    7.1    7.1    7.1    96    6.5  20.0   SSW   1.67  26.0     S    2.1    7.2    2.2  1011.0  0.00   0.0   0.039   0.000   18.0    43    5.2   16.7   8.26 1.1997    117    1    100.0    5 
28/02/15   8:00    7.1    7.1    7.1    96    6.5  20.0   SSW   1.67  25.0     S    2.2    7.2    2.3  1010.9  0.00   0.0   0.039   0.000   17.9    43    5.2   16.6   8.26 1.1999    116    1    100.0    5 
28/02/15   8:05    7.1    7.1    7.1    97    6.7  21.0   SSW   1.75  25.0     S    2.1    7.3    2.2  1010.9  0.00   0.0   0.039   0.000   17.9    44    5.5   16.7   8.38 1.1996    117    1    100.0    5 
28/02/15   8:10    7.1    7.1    7.1    97    6.7  21.0   SSW   1.75  25.0     S    2.1    7.3    2.2  1010.8  0.00   0.0   0.039   0.000   17.9    44    5.5   16.7   8.38 1.1995    116    1    100.0    5 
28/02/15   8:15    7.1    7.2    7.1    96    6.5  20.0   SSW   1.67  25.0   SSW    2.2    7.2    2.3  1010.8  0.00   0.0   0.039   0.000   17.9    44    5.5   16.6   8.38 1.1997    117    1    100.0    5 
28/02/15   8:20    7.2    7.2    7.1    97    6.7  20.0   SSW   1.67  24.0   SSW    2.3    7.3    2.4  1010.8  0.00   0.0   0.039   0.000   17.9    44    5.5   16.6   8.38 1.1998    116    1    100.0    5 
28/02/15   8:25    7.2    7.2    7.2    97    6.7  21.0   SSW   1.75  25.0   SSW    2.1    7.3    2.3  1010.7  0.00   0.0   0.039   0.000   17.9    44    5.5   16.6   8.38 1.1996    117    1    100.0    5 
28/02/15   8:30    7.2    7.2    7.2    97    6.7  22.0   SSW   1.83  26.0   SSW    2.0    7.3    2.2  1010.6  0.00   0.0   0.039   0.000   17.9    44    5.5   16.6   8.38 1.1995    117    1    100.0    5 
28/02/15   8:35    7.2    7.2    7.2    97    6.8  22.0   SSW   1.83  28.0     S    2.1    7.4    2.2  1010.5  0.00   0.0   0.039   0.000   17.8    44    5.4   16.6   8.39 1.1997    116    1    100.0    5 
28/02/15   8:40    7.2    7.2    7.2    97    6.8  22.0   SSW   1.83  29.0   SSW    2.1    7.4    2.2  1010.4  0.00   0.0   0.039   0.000   17.8    44    5.4   16.6   8.39 1.1996    116    1    100.0    5 
28/02/15   8:45    7.3    7.3    7.2    97    6.8  22.0   SSW   1.83  27.0   SSW    2.1    7.4    2.3  1010.3  0.00   0.0   0.038   0.000   17.8    44    5.4   16.6   8.39 1.1994    116    1    100.0    5 
28/02/15   8:50    7.3    7.3    7.2    97    6.8  21.0   SSW   1.75  27.0     S    2.2    7.4    2.4  1010.3  0.00   0.0   0.038   0.000   17.8    44    5.4   16.6   8.39 1.1994    116    1    100.0    5 
28/02/15   8:55    7.3    7.3    7.3    97    6.8  22.0   SSW   1.83  28.0   SSW    2.1    7.4    2.3  1010.1  0.00   0.0   0.038   0.000   17.8    44    5.4   16.5   8.39 1.1995    117    1    100.0    5 
28/02/15   9:00    7.3    7.3    7.3    97    6.8  22.0   SSW   1.83  27.0     S    2.1    7.4    2.3  1010.1  0.00   0.0   0.038   0.000   17.8    44    5.4   16.5   8.39 1.1995    117    1    100.0    5 
28/02/15   9:05    7.3    7.3    7.3    97    6.9  22.0   SSW   1.83  28.0   SSW    2.2    7.5    2.3  1010.1  0.00   0.0   0.038   0.000   17.8    44    5.4   16.5   8.39 1.1994    118    1    100.0    5 
28/02/15   9:10    7.3    7.3    7.3    97    6.9  22.0   SSW   1.83  27.0     S    2.2    7.5    2.3  1009.9  0.00   0.0   0.038   0.000   17.8    44    5.4   16.5   8.39 1.1992    115    1    100.0    5 
28/02/15   9:15    7.3    7.3    7.3    97    6.9  22.0   SSW   1.83  27.0     S    2.2    7.5    2.3  1009.9  0.00   0.0   0.038   0.000   17.8    44    5.4   16.5   8.39 1.1992    117    1    100.0    5 
28/02/15   9:20    7.3    7.3    7.3    97    6.9  22.0   SSW   1.83  26.0     S    2.2    7.5    2.3  1009.7  0.00   0.0   0.038   0.000   17.8    44    5.4   16.5   8.39 1.1990    116    1    100.0    5 
28/02/15   9:25    7.4    7.4    7.3    97    6.9  23.0   SSW   1.92  27.0   SSW    2.1    7.6    2.3  1009.7  0.00   0.0   0.038   0.000   17.8    45    5.7   16.6   8.57 1.1987    117    1    100.0    5 
28/02/15   9:30    7.3    7.4    7.3    97    6.9  21.0   SSW   1.75  24.0     S    2.3    7.5    2.4  1009.6  0.00   0.0   0.038   0.000   17.7    45    5.6   16.5   8.57 1.1989    117    1    100.0    5 
28/02/15   9:35    7.4    7.4    7.3    97    6.9  21.0   SSW   1.75  26.0     S    2.4    7.6    2.6  1009.6  0.00   0.0   0.038   0.000   17.7    45    5.6   16.5   8.57 1.1988    117    1    100.0    5 
28/02/15   9:40    7.4    7.4    7.3    97    6.9  21.0   SSW   1.75  28.0     S    2.4    7.6    2.6  1009.6  0.00   0.0   0.038   0.000   17.7    45    5.6   16.5   8.57 1.1988    117    1    100.0    5 
28/02/15   9:45    7.4    7.4    7.4    97    7.0  20.0   SSW   1.67  28.0     S    2.6    7.6    2.7  1009.5  0.00   0.0   0.038   0.000   17.7    45    5.6   16.5   8.57 1.1987    115    1    100.0    5 
28/02/15   9:50    7.4    7.4    7.4    97    7.0  20.0   SSW   1.67  27.0    SW    2.6    7.6    2.7  1009.5  0.00   0.0   0.038   0.000   17.7    45    5.6   16.4   8.57 1.1990    116    1    100.0    5 
28/02/15   9:55    7.4    7.4    7.4    97    7.0  21.0   SSW   1.75  27.0     S    2.4    7.6    2.6  1009.3  0.00   0.0   0.038   0.000   17.7    45    5.6   16.5   8.57 1.1985    117    1    100.0    5 
28/02/15  10:00    7.5    7.5    7.4    97    7.1  20.0   SSW   1.67  24.0    SW    2.7    7.7    2.8  1009.2  0.00   0.0   0.038   0.000   17.7    45    5.6   16.4   8.57 1.1986    116    1    100.0    5 
28/02/15  10:05    7.5    7.6    7.4    97    7.1  21.0   SSW   1.75  26.0     S    2.5    7.7    2.7  1009.1  0.00   0.0   0.038   0.000   17.7    45    5.6   16.4   8.57 1.1985    117    1    100.0    5 
28/02/15  10:10    7.6    7.6    7.5    97    7.1  20.0   SSW   1.67  25.0     S    2.7    7.7    2.9  1009.1  0.00   0.0   0.037   0.000   17.7    45    5.6   16.4   8.57 1.1986    117    1    100.0    5 
28/02/15  10:15    7.6    7.6    7.6    97    7.1  22.0   SSW   1.83  26.0   SSW    2.4    7.7    2.6  1008.9  0.00   0.0   0.037   0.000   17.7    45    5.6   16.4   8.57 1.1983    116    1    100.0    5 
28/02/15  10:20    7.6    7.6    7.6    97    7.1  20.0   SSW   1.67  27.0   SSW    2.7    7.7    2.9  1008.9  0.00   0.0   0.037   0.000   17.7    45    5.6   16.4   8.57 1.1983    117    1    100.0    5 
28/02/15  10:25    7.6    7.6    7.6    97    7.1  21.0   SSW   1.75  26.0   SSW    2.6    7.7    2.7  1008.9  0.00   0.0   0.037   0.000   17.7    45    5.6   16.4   8.57 1.1983    117    1    100.0    5 
28/02/15  10:30    7.6    7.6    7.6    97    7.1  19.0   SSW   1.58  23.0   SSW    2.8    7.7    3.0  1008.9  0.00   0.0   0.037   0.000   17.7    45    5.6   16.4   8.57 1.1984    113    1     99.1    5 
28/02/15  10:35    7.6    7.6    7.6    97    7.2  18.0   SSW   1.50  23.0     S    3.1    7.8    3.2  1008.8  0.00   0.0   0.037   0.000   17.6    45    5.5   16.4   8.58 1.1985    115    1    100.0    5 
28/02/15  10:40    7.6    7.6    7.6    97    7.2  20.0   SSW   1.67  26.0   SSW    2.8    7.8    2.9  1008.7  0.00   0.0   0.037   0.000   17.6    45    5.5   16.4   8.58 1.1983    117    1    100.0    5 
28/02/15  10:45    7.7    7.7    7.6    97    7.2  19.0   SSW   1.58  25.0   SSW    2.9    7.8    3.1  1008.6  0.00   0.0   0.037   0.000   17.6    45    5.5   16.4   8.58 1.1982    116    1    100.0    5 
28/02/15  10:50    7.7    7.7    7.6    97    7.2  20.0   SSW   1.67  24.0   SSW    2.8    7.8    3.0  1008.5  0.00   0.0   0.037   0.000   17.6    45    5.5   16.4   8.58 1.1981    116    1    100.0    5 
28/02/15  10:55    7.7    7.7    7.7    97    7.3  20.0   SSW   1.67  26.0   SSW    2.9    7.9    3.1  1008.4  0.00   0.0   0.037   0.000   17.6    45    5.5   16.4   8.58 1.1979    117    1    100.0    5 
28/02/15  11:00    7.7    7.7    7.7    97    7.2  20.0   SSW   1.67  25.0   SSW    2.8    7.8    3.0  1008.2  0.00   0.0   0.037   0.000   17.6    45    5.5   16.4   8.58 1.1978    117    1    100.0    5 
28/02/15  11:05    7.7    7.7    7.7    97    7.3  19.0   SSW   1.58  25.0   SSW    3.0    7.9    3.2  1008.2  0.00   0.0   0.037   0.000   17.6    46    5.8   16.4   8.70 1.1975    116    1    100.0    5 
28/02/15  11:10    7.7    7.7    7.7    97    7.3  19.0   SSW   1.58  25.0    SW    3.0    7.9    3.2  1008.1  0.00   0.0   0.037   0.000   17.6    46    5.8   16.4   8.70 1.1974    118    1    100.0    5 
28/02/15  11:15    7.7    7.7    7.7    97    7.3  20.0   SSW   1.67  26.0   SSW    2.9    7.9    3.1  1008.0  0.00   0.0   0.037   0.000   17.6    46    5.8   16.4   8.70 1.1972    117    1    100.0    5 
28/02/15  11:20    7.7    7.7    7.7    97    7.3  19.0   SSW   1.58  24.0   SSW    3.0    7.9    3.2  1007.9  0.00   0.0   0.037   0.000   17.6    46    5.8   16.4   8.70 1.1972    116    1    100.0    5 
28/02/15  11:25    7.7    7.7    7.7    97    7.3  20.0   SSW   1.67  25.0    SW    2.9    7.9    3.1  1007.8  0.00   0.0   0.037   0.000   17.6    46    5.8   16.3   8.71 1.1973    116    1    100.0    5 
28/02/15  11:30    7.7    7.7    7.7    97    7.3  19.0   SSW   1.58  25.0     S    3.0    7.9    3.2  1007.7  0.00   0.0   0.037   0.000   17.6    46    5.8   16.3   8.71 1.1971    117    1    100.0    5 
28/02/15  11:35    7.7    7.8    7.7    97    7.3  19.0   SSW   1.58  23.0   SSW    3.0    7.9    3.2  1007.8  0.00   0.0   0.037   0.000   17.6    46    5.8   16.3   8.71 1.1973    116    1    100.0    5 
28/02/15  11:40    7.7    7.7    7.7    97    7.3  19.0   SSW   1.58  24.0   SSW    3.0    7.9    3.2  1007.7  0.00   0.0   0.037   0.000   17.6    46    5.8   16.3   8.71 1.1971    116    1    100.0    5 
28/02/15  11:45    7.7    7.8    7.7    97    7.3  19.0   SSW   1.58  25.0   SSW    3.0    7.9    3.2  1007.6  0.00   0.0   0.037   0.000   17.6    46    5.8   16.3   8.71 1.1970    117    1    100.0    5 
28/02/15  11:50    7.8    7.8    7.7    97    7.3  19.0   SSW   1.58  25.0   SSW    3.1    7.9    3.2  1007.4  0.00   0.0   0.037   0.000   17.6    47    6.1   16.4   8.88 1.1966    116    1    100.0    5 
28/02/15  11:55    7.8    7.8    7.8    97    7.3  20.0   SSW   1.67  27.0     S    2.9    7.9    3.1  1007.3  0.00   0.0   0.037   0.000   17.6    47    6.2   16.4   8.88 1.1961    117    1    100.0    5 
28/02/15  12:00    7.8    7.8    7.7    97    7.3  20.0   SSW   1.67  26.0   SSW    2.9    7.9    3.1  1007.3  0.00   0.0   0.037   0.000   17.6    47    6.2   16.4   8.88 1.1961    117    1    100.0    5 
28/02/15  12:05    7.8    7.8    7.7    97    7.3  19.0   SSW   1.58  27.0     S    3.1    7.9    3.2  1007.1  0.00   0.0   0.037   0.000   17.6    47    6.2   16.4   8.88 1.1960    116    1    100.0    5 
28/02/15  12:10    7.8    7.8    7.8    97    7.3  19.0   SSW   1.58  26.0    SW    3.1    7.9    3.2  1007.0  0.00   0.0   0.037   0.000   17.7    47    6.2   16.5   8.87 1.1956    117    1    100.0    5 
28/02/15  12:15    7.7    7.8    7.7    97    7.3  19.0   SSW   1.58  24.0   SSW    3.0    7.9    3.2  1007.0  0.00   0.0   0.037   0.000   17.7    47    6.3   16.6   8.87 1.1952    117    1    100.0    5 
28/02/15  12:20    7.7    7.8    7.7    97    7.3  19.0   SSW   1.58  24.0     S    3.0    7.9    3.2  1006.9  0.00   0.0   0.037   0.000   17.7    47    6.3   16.6   8.87 1.1951    117    1    100.0    5 
28/02/15  12:25    7.8    7.8    7.7    97    7.3  19.0   SSW   1.58  23.0   SSW    3.1    7.9    3.2  1006.8  0.00   0.0   0.037   0.000   17.8    47    6.3   16.7   8.87 1.1947    116    1    100.0    5 
28/02/15  12:30    7.8    7.8    7.7    97    7.3  18.0   SSW   1.50  24.0   SSW    3.2    7.9    3.4  1006.8  0.00   0.0   0.037   0.000   17.8    48    6.7   16.7   8.99 1.1943    117    1    100.0    5 
28/02/15  12:35    7.7    7.8    7.7    97    7.3  17.0   SSW   1.42  22.0   SSW    3.3    7.9    3.5  1006.8  0.00   0.0   0.037   0.000   17.8    48    6.7   16.7   8.99 1.1943    116    1    100.0    5 
28/02/15  12:40    7.8    7.8    7.7    98    7.5  17.0   SSW   1.42  22.0     S    3.4    8.0    3.6  1006.8  0.00   0.0   0.037   0.000   17.9    48    6.7   16.8   8.98 1.1940    117    1    100.0    5 
28/02/15  12:45    7.8    7.8    7.8    98    7.5  17.0   SSW   1.42  21.0   SSW    3.4    8.0    3.6  1006.7  0.00   0.0   0.037   0.000   17.9    48    6.8   16.9   8.98 1.1936    117    1    100.0    5 
28/02/15  12:50    7.8    7.8    7.8    98    7.5  16.0   SSW   1.33  20.0    SW    3.5    8.0    3.7  1006.7  0.00   0.0   0.037   0.000   18.0    48    6.8   16.9   8.97 1.1933    116    1    100.0    5 
28/02/15  12:55    7.8    7.8    7.8    98    7.5  16.0   SSW   1.33  21.0   SSW    3.6    8.1    3.8  1006.5  0.00   0.0   0.036   0.000   18.0    48    6.8   16.9   8.97 1.1931    116    1    100.0    5 
28/02/15  13:00    7.8    7.9    7.8    98    7.5  18.0   SSW   1.50  21.0    SW    3.3    8.1    3.5  1006.5  0.00   0.0   0.036   0.000   18.1    48    6.9   17.0   8.97 1.1929    116    1    100.0    5 
28/02/15  13:05    7.9    7.9    7.8    98    7.6  18.0   SSW   1.50  24.0     S    3.3    8.1    3.6  1006.5  0.00   0.0   0.036   0.000   18.2    48    7.0   17.1   8.96 1.1922    116    1    100.0    5 
28/02/15  13:10    7.9    7.9    7.9    98    7.6  17.0   SSW   1.42  21.0   SSW    3.5    8.1    3.7  1006.3  0.00   0.0   0.036   0.000   18.2    48    7.0   17.1   8.96 1.1921    116    1    100.0    5 
28/02/15  13:15    7.9    7.9    7.9    98    7.6  18.0   SSW   1.50  22.0    SW    3.4    8.2    3.6  1006.2  0.00   0.0   0.036   0.000   18.2    48    7.0   17.2   8.96 1.1917    116    1    100.0    5 
28/02/15  13:20    7.9    7.9    7.8    98    7.6  17.0   SSW   1.42  21.0   SSW    3.5    8.1    3.7  1006.1  0.00   0.0   0.036   0.000   18.3    48    7.1   17.2   8.95 1.1913    116    1    100.0    5 
28/02/15  13:25    7.9    7.9    7.9    98    7.6  17.0   SSW   1.42  20.0   SSW    3.5    8.1    3.7  1005.9  0.00   0.0   0.036   0.000   18.3    48    7.1   17.3   8.95 1.1908    116    1    100.0    5 
28/02/15  13:30    7.9    7.9    7.9    98    7.6  16.0   SSW   1.33  21.0    SW    3.6    8.1    3.8  1005.9  0.00   0.0   0.036   0.000   18.4    48    7.2   17.3   8.95 1.1905    117    1    100.0    5 
28/02/15  13:35    7.9    7.9    7.9    98    7.6  17.0    SW   1.42  21.0    SW    3.5    8.1    3.7  1006.1  0.00   0.0   0.036   0.000   18.4    48    7.2   17.4   8.95 1.1905    117    1    100.0    5 
28/02/15  13:40    7.9    7.9    7.9    98    7.6  18.0    SW   1.50  23.0    SW    3.4    8.2    3.6  1006.1  0.00   0.0   0.036   0.000   18.5    48    7.3   17.4   8.94 1.1902    117    1    100.0    5 
93732